<?xml version="1.0" encoding="UTF-8" standalone="no" ?><gpx xmlns="http://www.topografix.com/GPX/1/1" xmlns:gpxx="http://www.garmin.com/xmlschemas/GpxExtensions/v3" xmlns:wptx1="http://www.garmin.com/xmlschemas/WaypointExtension/v1" xmlns:gpxtpx="http://www.garmin.com/xmlschemas/TrackPointExtension/v1" creator="GPSMAP 62s" version="1.1" xmlns:xsi="http://www.w3.org/2001/XMLSchema-instance" xsi:schemaLocation="http://www.topografix.com/GPX/1/1 http://www.topografix.com/GPX/1/1/gpx.xsd http://www.garmin.com/xmlschemas/GpxExtensions/v3 http://www8.garmin.com/xmlschemas/GpxExtensionsv3.xsd http://www.garmin.com/xmlschemas/WaypointExtension/v1 http://www8.garmin.com/xmlschemas/WaypointExtensionv1.xsd http://www.garmin.com/xmlschemas/TrackPointExtension/v1 http://www.garmin.com/xmlschemas/TrackPointExtensionv1.xsd"><metadata><link href="http://www.garmin.com"><text>Garmin International</text></link><time>2015-12-04T13:33:25Z</time></metadata><trk><name>2015-12-04 16:33:23</name><extensions><gpxx:TrackExtension><gpxx:DisplayColor>Cyan</gpxx:DisplayColor></gpxx:TrackExtension></extensions><trkseg><trkpt lat="59.7678659018" lon="28.8011867367"><ele>-42.64</ele><time>2015-12-04T08:39:28Z</time></trkpt><trkpt lat="59.7678735293" lon="28.8012125529"><ele>-42.64</ele><time>2015-12-04T08:39:30Z</time></trkpt><trkpt lat="59.7678830847" lon="28.8013231941"><ele>-39.28</ele><time>2015-12-04T08:39:36Z</time></trkpt><trkpt lat="59.7678858507" lon="28.8013595715"><ele>-35.91</ele><time>2015-12-04T08:39:38Z</time></trkpt><trkpt lat="59.7678928077" lon="28.8014138024"><ele>-32.07</ele><time>2015-12-04T08:39:41Z</time></trkpt><trkpt lat="59.7678896226" lon="28.8014979567"><ele>-28.22</ele><time>2015-12-04T08:39:44Z</time></trkpt><trkpt lat="59.7678840905" lon="28.8015878107"><ele>-25.34</ele><time>2015-12-04T08:39:47Z</time></trkpt><trkpt lat="59.7678823303" lon="28.8016620744"><ele>-21.97</ele><time>2015-12-04T08:39:50Z</time></trkpt><trkpt lat="59.7678896226" lon="28.8017426245"><ele>-18.61</ele><time>2015-12-04T08:39:54Z</time></trkpt><trkpt lat="59.7678833362" lon="28.8018579595"><ele>-15.24</ele><time>2015-12-04T08:39:58Z</time></trkpt><trkpt lat="59.7678789776" lon="28.8019872922"><ele>-11.88</ele><time>2015-12-04T08:40:03Z</time></trkpt><trkpt lat="59.7677752934" lon="28.8020760566"><ele>-7.55</ele><time>2015-12-04T08:40:12Z</time></trkpt><trkpt lat="59.7677174583" lon="28.8021350652"><ele>-4.19</ele><time>2015-12-04T08:40:18Z</time></trkpt><trkpt lat="59.7676999401" lon="28.8021453749"><ele>-3.23</ele><time>2015-12-04T08:40:20Z</time></trkpt><trkpt lat="59.7676258441" lon="28.8021907210"><ele>-1.79</ele><time>2015-12-04T08:40:27Z</time></trkpt><trkpt lat="59.7675506584" lon="28.8022172917"><ele>-0.34</ele><time>2015-12-04T08:40:32Z</time></trkpt><trkpt lat="59.7675079107" lon="28.8022072334"><ele>0.14</ele><time>2015-12-04T08:40:35Z</time></trkpt><trkpt lat="59.7674848605" lon="28.8022182975"><ele>0.62</ele><time>2015-12-04T08:40:38Z</time></trkpt><trkpt lat="59.7674556077" lon="28.8022334687"><ele>1.10</ele><time>2015-12-04T08:40:41Z</time></trkpt><trkpt lat="59.7674297914" lon="28.8023166172"><ele>1.58</ele><time>2015-12-04T08:40:45Z</time></trkpt><trkpt lat="59.7673895583" lon="28.8023395836"><ele>2.54</ele><time>2015-12-04T08:40:49Z</time></trkpt><trkpt lat="59.7673735488" lon="28.8023543358"><ele>2.54</ele><time>2015-12-04T08:40:51Z</time></trkpt><trkpt lat="59.7673125286" lon="28.8024763763"><ele>3.50</ele><time>2015-12-04T08:41:00Z</time></trkpt><trkpt lat="59.7672509216" lon="28.8027706649"><ele>3.98</ele><time>2015-12-04T08:41:13Z</time></trkpt><trkpt lat="59.7672074195" lon="28.8032001536"><ele>5.91</ele><time>2015-12-04T08:41:31Z</time></trkpt><trkpt lat="59.7672111075" lon="28.8032816257"><ele>6.39</ele><time>2015-12-04T08:41:38Z</time></trkpt><trkpt lat="59.7671907395" lon="28.8037465699"><ele>6.39</ele><time>2015-12-04T08:41:53Z</time></trkpt><trkpt lat="59.7670623288" lon="28.8037323207"><ele>7.35</ele><time>2015-12-04T08:42:06Z</time></trkpt><trkpt lat="59.7669205070" lon="28.8037143834"><ele>6.87</ele><time>2015-12-04T08:42:22Z</time></trkpt><trkpt lat="59.7669060901" lon="28.8036795147"><ele>7.35</ele><time>2015-12-04T08:42:25Z</time></trkpt><trkpt lat="59.7668428905" lon="28.8036711328"><ele>6.87</ele><time>2015-12-04T08:42:31Z</time></trkpt><trkpt lat="59.7667422239" lon="28.8036860526"><ele>7.35</ele><time>2015-12-04T08:42:43Z</time></trkpt><trkpt lat="59.7666939441" lon="28.8036972843"><ele>6.87</ele><time>2015-12-04T08:42:48Z</time></trkpt><trkpt lat="59.7666651942" lon="28.8037171494"><ele>6.87</ele><time>2015-12-04T08:42:51Z</time></trkpt><trkpt lat="59.7664895933" lon="28.8037530240"><ele>6.39</ele><time>2015-12-04T08:43:08Z</time></trkpt><trkpt lat="59.7664342728" lon="28.8038098533"><ele>6.39</ele><time>2015-12-04T08:43:12Z</time></trkpt><trkpt lat="59.7663834784" lon="28.8038377650"><ele>5.91</ele><time>2015-12-04T08:43:16Z</time></trkpt><trkpt lat="59.7663551476" lon="28.8038308918"><ele>5.91</ele><time>2015-12-04T08:43:19Z</time></trkpt><trkpt lat="59.7663394734" lon="28.8037728053"><ele>6.39</ele><time>2015-12-04T08:43:22Z</time></trkpt><trkpt lat="59.7663038503" lon="28.8037629146"><ele>6.39</ele><time>2015-12-04T08:43:25Z</time></trkpt><trkpt lat="59.7662426624" lon="28.8038537744"><ele>5.91</ele><time>2015-12-04T08:43:32Z</time></trkpt><trkpt lat="59.7661653813" lon="28.8039428741"><ele>6.39</ele><time>2015-12-04T08:43:42Z</time></trkpt><trkpt lat="59.7661581729" lon="28.8039692771"><ele>6.87</ele><time>2015-12-04T08:43:58Z</time></trkpt><trkpt lat="59.7661358770" lon="28.8039748929"><ele>6.87</ele><time>2015-12-04T08:44:01Z</time></trkpt><trkpt lat="59.7659366392" lon="28.8039339054"><ele>6.87</ele><time>2015-12-04T08:44:20Z</time></trkpt><trkpt lat="59.7659316938" lon="28.8039271999"><ele>7.35</ele><time>2015-12-04T08:44:34Z</time></trkpt><trkpt lat="59.7658282612" lon="28.8039183989"><ele>7.35</ele><time>2015-12-04T08:44:49Z</time></trkpt><trkpt lat="59.7657561768" lon="28.8039688580"><ele>7.35</ele><time>2015-12-04T08:44:58Z</time></trkpt><trkpt lat="59.7657230683" lon="28.8038988691"><ele>7.35</ele><time>2015-12-04T08:45:13Z</time></trkpt><trkpt lat="59.7657263372" lon="28.8039462268"><ele>3.98</ele><time>2015-12-04T08:45:17Z</time></trkpt><trkpt lat="59.7657301091" lon="28.8039613143"><ele>8.79</ele><time>2015-12-04T08:45:18Z</time></trkpt><trkpt lat="59.7657368146" lon="28.8040493242"><ele>7.35</ele><time>2015-12-04T08:45:23Z</time></trkpt><trkpt lat="59.7657258343" lon="28.8041535113"><ele>7.83</ele><time>2015-12-04T08:45:27Z</time></trkpt><trkpt lat="59.7657001019" lon="28.8044450339"><ele>7.35</ele><time>2015-12-04T08:45:39Z</time></trkpt><trkpt lat="59.7656897921" lon="28.8045175374"><ele>7.83</ele><time>2015-12-04T08:45:43Z</time></trkpt><trkpt lat="59.7656850144" lon="28.8045821618"><ele>7.83</ele><time>2015-12-04T08:45:46Z</time></trkpt><trkpt lat="59.7656550910" lon="28.8048201241"><ele>7.83</ele><time>2015-12-04T08:45:58Z</time></trkpt><trkpt lat="59.7656550072" lon="28.8048326969"><ele>7.83</ele><time>2015-12-04T08:45:59Z</time></trkpt><trkpt lat="59.7656256706" lon="28.8051447552"><ele>7.83</ele><time>2015-12-04T08:46:12Z</time></trkpt><trkpt lat="59.7656153608" lon="28.8053558115"><ele>7.83</ele><time>2015-12-04T08:46:22Z</time></trkpt><trkpt lat="59.7656182107" lon="28.8053690549"><ele>7.83</ele><time>2015-12-04T08:46:23Z</time></trkpt><trkpt lat="59.7656170372" lon="28.8055390399"><ele>7.83</ele><time>2015-12-04T08:46:32Z</time></trkpt><trkpt lat="59.7655844316" lon="28.8058634195"><ele>7.35</ele><time>2015-12-04T08:46:45Z</time></trkpt><trkpt lat="59.7655785643" lon="28.8060659263"><ele>7.35</ele><time>2015-12-04T08:46:55Z</time></trkpt><trkpt lat="59.7655454557" lon="28.8062986918"><ele>8.31</ele><time>2015-12-04T08:47:07Z</time></trkpt><trkpt lat="59.7655207291" lon="28.8064866140"><ele>7.83</ele><time>2015-12-04T08:47:20Z</time></trkpt><trkpt lat="59.7654961701" lon="28.8066933118"><ele>7.35</ele><time>2015-12-04T08:47:34Z</time></trkpt><trkpt lat="59.7654984333" lon="28.8068533223"><ele>7.83</ele><time>2015-12-04T08:47:43Z</time></trkpt><trkpt lat="59.7654908895" lon="28.8069758657"><ele>7.83</ele><time>2015-12-04T08:47:49Z</time></trkpt><trkpt lat="59.7654820047" lon="28.8072093017"><ele>8.31</ele><time>2015-12-04T08:48:01Z</time></trkpt><trkpt lat="59.7654532548" lon="28.8074507006"><ele>8.31</ele><time>2015-12-04T08:48:13Z</time></trkpt><trkpt lat="59.7654455435" lon="28.8075825479"><ele>8.31</ele><time>2015-12-04T08:48:25Z</time></trkpt><trkpt lat="59.7654102556" lon="28.8078126311"><ele>8.31</ele><time>2015-12-04T08:48:36Z</time></trkpt><trkpt lat="59.7653945815" lon="28.8079254515"><ele>8.31</ele><time>2015-12-04T08:48:41Z</time></trkpt><trkpt lat="59.7653547674" lon="28.8081754837"><ele>8.79</ele><time>2015-12-04T08:48:54Z</time></trkpt><trkpt lat="59.7653111815" lon="28.8084087521"><ele>8.31</ele><time>2015-12-04T08:49:06Z</time></trkpt><trkpt lat="59.7653405182" lon="28.8086390868"><ele>8.31</ele><time>2015-12-04T08:49:20Z</time></trkpt><trkpt lat="59.7653967608" lon="28.8086016197"><ele>8.31</ele><time>2015-12-04T08:49:30Z</time></trkpt><trkpt lat="59.7654881235" lon="28.8086311240"><ele>7.83</ele><time>2015-12-04T08:49:42Z</time></trkpt><trkpt lat="59.7655845154" lon="28.8087017834"><ele>6.87</ele><time>2015-12-04T08:49:56Z</time></trkpt><trkpt lat="59.7656477150" lon="28.8087033760"><ele>6.87</ele><time>2015-12-04T08:50:08Z</time></trkpt><trkpt lat="59.7657329589" lon="28.8087819982"><ele>6.87</ele><time>2015-12-04T08:50:19Z</time></trkpt><trkpt lat="59.7657934763" lon="28.8088328764"><ele>6.87</ele><time>2015-12-04T08:50:25Z</time></trkpt><trkpt lat="59.7659121640" lon="28.8089265022"><ele>6.87</ele><time>2015-12-04T08:50:36Z</time></trkpt><trkpt lat="59.7659218032" lon="28.8090076391"><ele>6.39</ele><time>2015-12-04T08:50:41Z</time></trkpt><trkpt lat="59.7659164388" lon="28.8090786338"><ele>6.87</ele><time>2015-12-04T08:50:51Z</time></trkpt><trkpt lat="59.7659295145" lon="28.8090492133"><ele>6.39</ele><time>2015-12-04T08:51:06Z</time></trkpt><trkpt lat="59.7659817338" lon="28.8090604451"><ele>5.91</ele><time>2015-12-04T08:51:22Z</time></trkpt><trkpt lat="59.7658941429" lon="28.8091377262"><ele>6.39</ele><time>2015-12-04T08:51:35Z</time></trkpt><trkpt lat="59.7658975795" lon="28.8092761114"><ele>6.39</ele><time>2015-12-04T08:51:46Z</time></trkpt><trkpt lat="59.7658886947" lon="28.8093896862"><ele>5.91</ele><time>2015-12-04T08:51:59Z</time></trkpt><trkpt lat="59.7659041174" lon="28.8095154148"><ele>4.94</ele><time>2015-12-04T08:52:12Z</time></trkpt><trkpt lat="59.7658661474" lon="28.8096690550"><ele>4.94</ele><time>2015-12-04T08:52:25Z</time></trkpt><trkpt lat="59.7658709250" lon="28.8095759321"><ele>5.91</ele><time>2015-12-04T08:52:38Z</time></trkpt><trkpt lat="59.7659067158" lon="28.8096965477"><ele>5.42</ele><time>2015-12-04T08:52:50Z</time></trkpt><trkpt lat="59.7659622040" lon="28.8098076079"><ele>5.42</ele><time>2015-12-04T08:53:01Z</time></trkpt><trkpt lat="59.7660154290" lon="28.8098405488"><ele>5.91</ele><time>2015-12-04T08:53:12Z</time></trkpt><trkpt lat="59.7661056183" lon="28.8097691350"><ele>6.39</ele><time>2015-12-04T08:53:27Z</time></trkpt><trkpt lat="59.7661683988" lon="28.8096920215"><ele>6.87</ele><time>2015-12-04T08:53:33Z</time></trkpt><trkpt lat="59.7662546486" lon="28.8094906881"><ele>6.87</ele><time>2015-12-04T08:53:46Z</time></trkpt><trkpt lat="59.7662734240" lon="28.8094522990"><ele>6.87</ele><time>2015-12-04T08:53:50Z</time></trkpt><trkpt lat="59.7663792036" lon="28.8093622774"><ele>6.39</ele><time>2015-12-04T08:54:04Z</time></trkpt><trkpt lat="59.7664698120" lon="28.8093097229"><ele>6.39</ele><time>2015-12-04T08:54:19Z</time></trkpt><trkpt lat="59.7666020785" lon="28.8092931267"><ele>6.39</ele><time>2015-12-04T08:54:32Z</time></trkpt><trkpt lat="59.7666248772" lon="28.8091845810"><ele>6.87</ele><time>2015-12-04T08:54:44Z</time></trkpt><trkpt lat="59.7666618414" lon="28.8091883529"><ele>6.87</ele><time>2015-12-04T08:54:53Z</time></trkpt><trkpt lat="59.7667340934" lon="28.8093064539"><ele>6.39</ele><time>2015-12-04T08:55:04Z</time></trkpt><trkpt lat="59.7667813674" lon="28.8092036918"><ele>6.39</ele><time>2015-12-04T08:55:17Z</time></trkpt><trkpt lat="59.7667641006" lon="28.8090382330"><ele>6.39</ele><time>2015-12-04T08:55:25Z</time></trkpt><trkpt lat="59.7667710576" lon="28.8089575153"><ele>6.39</ele><time>2015-12-04T08:55:28Z</time></trkpt><trkpt lat="59.7667858936" lon="28.8087979238"><ele>5.91</ele><time>2015-12-04T08:55:39Z</time></trkpt><trkpt lat="59.7667299025" lon="28.8087324612"><ele>5.91</ele><time>2015-12-04T08:55:45Z</time></trkpt><trkpt lat="59.7667191736" lon="28.8085848559"><ele>5.91</ele><time>2015-12-04T08:55:50Z</time></trkpt><trkpt lat="59.7667083610" lon="28.8084151223"><ele>5.91</ele><time>2015-12-04T08:55:56Z</time></trkpt><trkpt lat="59.7666852269" lon="28.8083100971"><ele>5.91</ele><time>2015-12-04T08:56:00Z</time></trkpt><trkpt lat="59.7667003982" lon="28.8079873100"><ele>5.91</ele><time>2015-12-04T08:56:14Z</time></trkpt><trkpt lat="59.7666816227" lon="28.8079421315"><ele>5.91</ele><time>2015-12-04T08:56:18Z</time></trkpt><trkpt lat="59.7666185908" lon="28.8080217596"><ele>5.91</ele><time>2015-12-04T08:56:23Z</time></trkpt><trkpt lat="59.7665639408" lon="28.8079564646"><ele>6.87</ele><time>2015-12-04T08:56:31Z</time></trkpt><trkpt lat="59.7664709855" lon="28.8079279661"><ele>5.42</ele><time>2015-12-04T08:56:40Z</time></trkpt><trkpt lat="59.7664318420" lon="28.8079197519"><ele>4.94</ele><time>2015-12-04T08:56:45Z</time></trkpt><trkpt lat="59.7663658764" lon="28.8078449853"><ele>4.94</ele><time>2015-12-04T08:56:56Z</time></trkpt><trkpt lat="59.7662895173" lon="28.8077694643"><ele>4.46</ele><time>2015-12-04T08:57:08Z</time></trkpt><trkpt lat="59.7662642878" lon="28.8077521976"><ele>4.46</ele><time>2015-12-04T08:57:12Z</time></trkpt><trkpt lat="59.7661931254" lon="28.8077558018"><ele>3.98</ele><time>2015-12-04T08:57:27Z</time></trkpt><trkpt lat="59.7661330272" lon="28.8077122159"><ele>4.46</ele><time>2015-12-04T08:57:35Z</time></trkpt><trkpt lat="59.7660542373" lon="28.8076553866"><ele>5.42</ele><time>2015-12-04T08:57:47Z</time></trkpt><trkpt lat="59.7660446819" lon="28.8076436520"><ele>4.46</ele><time>2015-12-04T08:57:55Z</time></trkpt><trkpt lat="59.7660787124" lon="28.8076063525"><ele>4.94</ele><time>2015-12-04T08:58:04Z</time></trkpt><trkpt lat="59.7660846636" lon="28.8075982220"><ele>4.46</ele><time>2015-12-04T08:58:05Z</time></trkpt><trkpt lat="59.7661715839" lon="28.8076987211"><ele>4.46</ele><time>2015-12-04T08:58:17Z</time></trkpt><trkpt lat="59.7661792953" lon="28.8077163231"><ele>4.46</ele><time>2015-12-04T08:58:19Z</time></trkpt><trkpt lat="59.7662434168" lon="28.8077900000"><ele>3.98</ele><time>2015-12-04T08:58:29Z</time></trkpt><trkpt lat="59.7662129067" lon="28.8077756669"><ele>4.94</ele><time>2015-12-04T08:58:53Z</time></trkpt><trkpt lat="59.7662222944" lon="28.8077851385"><ele>4.46</ele><time>2015-12-04T08:59:05Z</time></trkpt><trkpt lat="59.7662000824" lon="28.8077718113"><ele>4.94</ele><time>2015-12-04T08:59:07Z</time></trkpt><trkpt lat="59.7661440074" lon="28.8076518662"><ele>4.46</ele><time>2015-12-04T08:59:19Z</time></trkpt><trkpt lat="59.7661083005" lon="28.8074681349"><ele>4.94</ele><time>2015-12-04T08:59:31Z</time></trkpt><trkpt lat="59.7661112342" lon="28.8072312623"><ele>5.42</ele><time>2015-12-04T08:59:45Z</time></trkpt><trkpt lat="59.7660935484" lon="28.8070291746"><ele>4.94</ele><time>2015-12-04T09:00:03Z</time></trkpt><trkpt lat="59.7660245653" lon="28.8069793861"><ele>4.94</ele><time>2015-12-04T09:00:21Z</time></trkpt><trkpt lat="59.7659373097" lon="28.8068738580"><ele>5.42</ele><time>2015-12-04T09:00:35Z</time></trkpt><trkpt lat="59.7659324482" lon="28.8066958264"><ele>5.91</ele><time>2015-12-04T09:00:51Z</time></trkpt><trkpt lat="59.7659273352" lon="28.8067328744"><ele>5.91</ele><time>2015-12-04T09:01:21Z</time></trkpt><trkpt lat="59.7659491282" lon="28.8066949882"><ele>5.91</ele><time>2015-12-04T09:01:54Z</time></trkpt><trkpt lat="59.7659342922" lon="28.8064564392"><ele>6.39</ele><time>2015-12-04T09:02:10Z</time></trkpt><trkpt lat="59.7659204621" lon="28.8064048067"><ele>6.39</ele><time>2015-12-04T09:02:33Z</time></trkpt><trkpt lat="59.7659091465" lon="28.8063990232"><ele>6.39</ele><time>2015-12-04T09:03:08Z</time></trkpt><trkpt lat="59.7659237310" lon="28.8063068222"><ele>6.39</ele><time>2015-12-04T09:03:31Z</time></trkpt><trkpt lat="59.7659883555" lon="28.8059736416"><ele>6.39</ele><time>2015-12-04T09:03:56Z</time></trkpt><trkpt lat="59.7659981623" lon="28.8058365136"><ele>6.87</ele><time>2015-12-04T09:04:15Z</time></trkpt><trkpt lat="59.7660146747" lon="28.8056335039"><ele>6.39</ele><time>2015-12-04T09:04:32Z</time></trkpt><trkpt lat="59.7659974918" lon="28.8055862300"><ele>6.39</ele><time>2015-12-04T09:04:37Z</time></trkpt><trkpt lat="59.7658780497" lon="28.8054154068"><ele>7.35</ele><time>2015-12-04T09:04:56Z</time></trkpt><trkpt lat="59.7659314424" lon="28.8052050211"><ele>7.35</ele><time>2015-12-04T09:05:15Z</time></trkpt><trkpt lat="59.7658684105" lon="28.8049311843"><ele>7.35</ele><time>2015-12-04T09:05:33Z</time></trkpt><trkpt lat="59.7659189533" lon="28.8045032043"><ele>7.83</ele><time>2015-12-04T09:05:55Z</time></trkpt><trkpt lat="59.7658979986" lon="28.8041763101"><ele>7.35</ele><time>2015-12-04T09:06:09Z</time></trkpt><trkpt lat="59.7658922989" lon="28.8041328080"><ele>6.87</ele><time>2015-12-04T09:06:11Z</time></trkpt><trkpt lat="59.7659109905" lon="28.8040245138"><ele>7.35</ele><time>2015-12-04T09:06:16Z</time></trkpt><trkpt lat="59.7659793030" lon="28.8037365116"><ele>8.31</ele><time>2015-12-04T09:06:32Z</time></trkpt><trkpt lat="59.7659855057" lon="28.8037187420"><ele>7.83</ele><time>2015-12-04T09:06:33Z</time></trkpt><trkpt lat="59.7660225537" lon="28.8034226093"><ele>7.35</ele><time>2015-12-04T09:06:50Z</time></trkpt><trkpt lat="59.7660621163" lon="28.8034174964"><ele>8.31</ele><time>2015-12-04T09:06:59Z</time></trkpt><trkpt lat="59.7661067080" lon="28.8034481741"><ele>7.83</ele><time>2015-12-04T09:07:13Z</time></trkpt><trkpt lat="59.7661143355" lon="28.8034252077"><ele>7.83</ele><time>2015-12-04T09:07:32Z</time></trkpt><trkpt lat="59.7661200352" lon="28.8034214359"><ele>7.83</ele><time>2015-12-04T09:07:53Z</time></trkpt><trkpt lat="59.7661088035" lon="28.8033636846"><ele>7.83</ele><time>2015-12-04T09:08:22Z</time></trkpt><trkpt lat="59.7661058698" lon="28.8034018222"><ele>7.83</ele><time>2015-12-04T09:08:48Z</time></trkpt><trkpt lat="59.7661175206" lon="28.8033882435"><ele>7.83</ele><time>2015-12-04T09:09:27Z</time></trkpt><trkpt lat="59.7661018465" lon="28.8033340126"><ele>8.31</ele><time>2015-12-04T09:10:02Z</time></trkpt><trkpt lat="59.7661015112" lon="28.8033616729"><ele>8.31</ele><time>2015-12-04T09:10:36Z</time></trkpt><trkpt lat="59.7661118209" lon="28.8034019899"><ele>8.31</ele><time>2015-12-04T09:11:10Z</time></trkpt><trkpt lat="59.7661171015" lon="28.8033709768"><ele>8.31</ele><time>2015-12-04T09:11:47Z</time></trkpt><trkpt lat="59.7660952248" lon="28.8033618405"><ele>8.79</ele><time>2015-12-04T09:12:23Z</time></trkpt><trkpt lat="59.7660936322" lon="28.8033469208"><ele>8.79</ele><time>2015-12-04T09:12:49Z</time></trkpt><trkpt lat="59.7661083005" lon="28.8033186737"><ele>9.27</ele><time>2015-12-04T09:13:21Z</time></trkpt><trkpt lat="59.7661444265" lon="28.8033131417"><ele>9.75</ele><time>2015-12-04T09:13:47Z</time></trkpt><trkpt lat="59.7661543172" lon="28.8033557218"><ele>9.75</ele><time>2015-12-04T09:14:17Z</time></trkpt><trkpt lat="59.7661453485" lon="28.8033745810"><ele>10.23</ele><time>2015-12-04T09:14:42Z</time></trkpt><trkpt lat="59.7661209572" lon="28.8033381198"><ele>10.23</ele><time>2015-12-04T09:15:17Z</time></trkpt><trkpt lat="59.7661253158" lon="28.8034023251"><ele>10.23</ele><time>2015-12-04T09:15:43Z</time></trkpt><trkpt lat="59.7661220469" lon="28.8033913448"><ele>10.23</ele><time>2015-12-04T09:16:11Z</time></trkpt><trkpt lat="59.7661315184" lon="28.8034095336"><ele>10.71</ele><time>2015-12-04T09:16:50Z</time></trkpt><trkpt lat="59.7661183588" lon="28.8033810351"><ele>10.23</ele><time>2015-12-04T09:17:25Z</time></trkpt><trkpt lat="59.7661428340" lon="28.8033886626"><ele>10.71</ele><time>2015-12-04T09:17:53Z</time></trkpt><trkpt lat="59.7661201190" lon="28.8033668697"><ele>10.71</ele><time>2015-12-04T09:18:25Z</time></trkpt><trkpt lat="59.7661359608" lon="28.8033419754"><ele>10.23</ele><time>2015-12-04T09:18:43Z</time></trkpt><trkpt lat="59.7661742661" lon="28.8032659516"><ele>9.27</ele><time>2015-12-04T09:18:57Z</time></trkpt><trkpt lat="59.7661773674" lon="28.8032541331"><ele>10.23</ele><time>2015-12-04T09:19:08Z</time></trkpt><trkpt lat="59.7662496194" lon="28.8031887542"><ele>11.19</ele><time>2015-12-04T09:19:18Z</time></trkpt><trkpt lat="59.7662381362" lon="28.8030087948"><ele>11.67</ele><time>2015-12-04T09:19:30Z</time></trkpt><trkpt lat="59.7662449256" lon="28.8028098922"><ele>11.19</ele><time>2015-12-04T09:19:44Z</time></trkpt><trkpt lat="59.7662381362" lon="28.8028024323"><ele>11.19</ele><time>2015-12-04T09:19:59Z</time></trkpt><trkpt lat="59.7662236355" lon="28.8027756941"><ele>11.67</ele><time>2015-12-04T09:20:26Z</time></trkpt><trkpt lat="59.7662207019" lon="28.8028010074"><ele>11.67</ele><time>2015-12-04T09:20:42Z</time></trkpt><trkpt lat="59.7662204504" lon="28.8028266560"><ele>12.15</ele><time>2015-12-04T09:21:09Z</time></trkpt><trkpt lat="59.7662132420" lon="28.8028120715"><ele>12.63</ele><time>2015-12-04T09:21:39Z</time></trkpt><trkpt lat="59.7662636172" lon="28.8026902825"><ele>13.12</ele><time>2015-12-04T09:21:58Z</time></trkpt><trkpt lat="59.7662605997" lon="28.8026715908"><ele>13.60</ele><time>2015-12-04T09:22:18Z</time></trkpt><trkpt lat="59.7662635334" lon="28.8026462775"><ele>13.60</ele><time>2015-12-04T09:22:21Z</time></trkpt><trkpt lat="59.7662907746" lon="28.8025840838"><ele>13.12</ele><time>2015-12-04T09:22:32Z</time></trkpt><trkpt lat="59.7662838176" lon="28.8025411684"><ele>13.12</ele><time>2015-12-04T09:22:35Z</time></trkpt><trkpt lat="59.7662473563" lon="28.8024070580"><ele>12.63</ele><time>2015-12-04T09:22:42Z</time></trkpt><trkpt lat="59.7662334424" lon="28.8023001049"><ele>12.63</ele><time>2015-12-04T09:22:47Z</time></trkpt><trkpt lat="59.7662455961" lon="28.8020088337"><ele>12.63</ele><time>2015-12-04T09:23:02Z</time></trkpt><trkpt lat="59.7662831470" lon="28.8018684369"><ele>12.63</ele><time>2015-12-04T09:23:11Z</time></trkpt><trkpt lat="59.7663021740" lon="28.8017544430"><ele>13.12</ele><time>2015-12-04T09:23:25Z</time></trkpt><trkpt lat="59.7663029283" lon="28.8017437980"><ele>13.12</ele><time>2015-12-04T09:23:26Z</time></trkpt><trkpt lat="59.7663452569" lon="28.8015779201"><ele>13.12</ele><time>2015-12-04T09:23:38Z</time></trkpt><trkpt lat="59.7663582489" lon="28.8012923487"><ele>13.12</ele><time>2015-12-04T09:23:51Z</time></trkpt><trkpt lat="59.7663568240" lon="28.8012763392"><ele>13.12</ele><time>2015-12-04T09:23:52Z</time></trkpt><trkpt lat="59.7664072830" lon="28.8009590004"><ele>14.08</ele><time>2015-12-04T09:24:05Z</time></trkpt><trkpt lat="59.7664532997" lon="28.8006761950"><ele>14.08</ele><time>2015-12-04T09:24:17Z</time></trkpt><trkpt lat="59.7664367873" lon="28.8003769610"><ele>14.08</ele><time>2015-12-04T09:24:28Z</time></trkpt><trkpt lat="59.7664327640" lon="28.8002008572"><ele>14.08</ele><time>2015-12-04T09:24:36Z</time></trkpt><trkpt lat="59.7664435767" lon="28.8000465464"><ele>14.56</ele><time>2015-12-04T09:24:44Z</time></trkpt><trkpt lat="59.7664470132" lon="28.7999229971"><ele>14.08</ele><time>2015-12-04T09:24:55Z</time></trkpt><trkpt lat="59.7664464265" lon="28.7999341451"><ele>14.08</ele><time>2015-12-04T09:24:59Z</time></trkpt><trkpt lat="59.7664492764" lon="28.7996616494"><ele>14.56</ele><time>2015-12-04T09:25:12Z</time></trkpt><trkpt lat="59.7664619330" lon="28.7994917482"><ele>15.04</ele><time>2015-12-04T09:25:24Z</time></trkpt><trkpt lat="59.7664826363" lon="28.7994578853"><ele>15.04</ele><time>2015-12-04T09:25:38Z</time></trkpt><trkpt lat="59.7664818820" lon="28.7994326558"><ele>15.04</ele><time>2015-12-04T09:25:42Z</time></trkpt><trkpt lat="59.7664799541" lon="28.7993967813"><ele>15.04</ele><time>2015-12-04T09:25:44Z</time></trkpt><trkpt lat="59.7664878331" lon="28.7991366070"><ele>15.52</ele><time>2015-12-04T09:25:54Z</time></trkpt><trkpt lat="59.7664713208" lon="28.7991179153"><ele>15.52</ele><time>2015-12-04T09:26:04Z</time></trkpt><trkpt lat="59.7664694767" lon="28.7990708090"><ele>15.04</ele><time>2015-12-04T09:26:11Z</time></trkpt><trkpt lat="59.7664799541" lon="28.7988488562"><ele>15.52</ele><time>2015-12-04T09:26:23Z</time></trkpt><trkpt lat="59.7664823849" lon="28.7988358643"><ele>15.52</ele><time>2015-12-04T09:26:24Z</time></trkpt><trkpt lat="59.7665263060" lon="28.7986063678"><ele>15.52</ele><time>2015-12-04T09:26:32Z</time></trkpt><trkpt lat="59.7665483505" lon="28.7983548269"><ele>15.52</ele><time>2015-12-04T09:26:44Z</time></trkpt><trkpt lat="59.7665489372" lon="28.7983390689"><ele>15.52</ele><time>2015-12-04T09:26:45Z</time></trkpt><trkpt lat="59.7665249649" lon="28.7978737056"><ele>15.52</ele><time>2015-12-04T09:27:03Z</time></trkpt><trkpt lat="59.7664826363" lon="28.7979033776"><ele>16.00</ele><time>2015-12-04T09:27:15Z</time></trkpt><trkpt lat="59.7665517032" lon="28.7977807503"><ele>15.52</ele><time>2015-12-04T09:27:27Z</time></trkpt><trkpt lat="59.7665558103" lon="28.7975183129"><ele>16.00</ele><time>2015-12-04T09:27:40Z</time></trkpt><trkpt lat="59.7665610909" lon="28.7973993737"><ele>15.52</ele><time>2015-12-04T09:27:44Z</time></trkpt><trkpt lat="59.7665617615" lon="28.7970341742"><ele>16.00</ele><time>2015-12-04T09:27:59Z</time></trkpt><trkpt lat="59.7666069400" lon="28.7965030968"><ele>16.00</ele><time>2015-12-04T09:28:20Z</time></trkpt><trkpt lat="59.7666664515" lon="28.7961241510"><ele>16.48</ele><time>2015-12-04T09:28:36Z</time></trkpt><trkpt lat="59.7666898370" lon="28.7959710974"><ele>16.00</ele><time>2015-12-04T09:28:46Z</time></trkpt><trkpt lat="59.7667383682" lon="28.7958207261"><ele>16.00</ele><time>2015-12-04T09:28:51Z</time></trkpt><trkpt lat="59.7668117099" lon="28.7955699395"><ele>16.00</ele><time>2015-12-04T09:29:07Z</time></trkpt><trkpt lat="59.7668133024" lon="28.7954634894"><ele>16.00</ele><time>2015-12-04T09:29:12Z</time></trkpt><trkpt lat="59.7668604087" lon="28.7952182349"><ele>16.00</ele><time>2015-12-04T09:29:25Z</time></trkpt><trkpt lat="59.7668653540" lon="28.7951992080"><ele>16.00</ele><time>2015-12-04T09:29:26Z</time></trkpt><trkpt lat="59.7668847162" lon="28.7951285485"><ele>16.96</ele><time>2015-12-04T09:29:30Z</time></trkpt><trkpt lat="59.7669107839" lon="28.7950329110"><ele>16.96</ele><time>2015-12-04T09:29:43Z</time></trkpt><trkpt lat="59.7669231053" lon="28.7950001378"><ele>16.00</ele><time>2015-12-04T09:30:03Z</time></trkpt><trkpt lat="59.7669750731" lon="28.7948137242"><ele>16.00</ele><time>2015-12-04T09:30:15Z</time></trkpt><trkpt lat="59.7670024820" lon="28.7947017420"><ele>16.00</ele><time>2015-12-04T09:30:27Z</time></trkpt><trkpt lat="59.7670024820" lon="28.7946024165"><ele>16.00</ele><time>2015-12-04T09:30:39Z</time></trkpt><trkpt lat="59.7670434695" lon="28.7944092974"><ele>16.00</ele><time>2015-12-04T09:30:52Z</time></trkpt><trkpt lat="59.7670561261" lon="28.7943974789"><ele>16.00</ele><time>2015-12-04T09:30:56Z</time></trkpt><trkpt lat="59.7670830321" lon="28.7943999935"><ele>15.52</ele><time>2015-12-04T09:31:00Z</time></trkpt><trkpt lat="59.7671132907" lon="28.7944057770"><ele>16.00</ele><time>2015-12-04T09:31:04Z</time></trkpt><trkpt lat="59.7671386879" lon="28.7943094689"><ele>16.00</ele><time>2015-12-04T09:31:17Z</time></trkpt><trkpt lat="59.7671701200" lon="28.7941523083"><ele>16.00</ele><time>2015-12-04T09:31:28Z</time></trkpt><trkpt lat="59.7671972774" lon="28.7940003444"><ele>16.00</ele><time>2015-12-04T09:31:40Z</time></trkpt><trkpt lat="59.7672238480" lon="28.7938479614"><ele>15.52</ele><time>2015-12-04T09:31:52Z</time></trkpt><trkpt lat="59.7672774922" lon="28.7936231587"><ele>16.00</ele><time>2015-12-04T09:32:04Z</time></trkpt><trkpt lat="59.7672962677" lon="28.7934956700"><ele>16.00</ele><time>2015-12-04T09:32:11Z</time></trkpt><trkpt lat="59.7673232574" lon="28.7932318915"><ele>15.52</ele><time>2015-12-04T09:32:24Z</time></trkpt><trkpt lat="59.7673701122" lon="28.7929904088"><ele>16.48</ele><time>2015-12-04T09:32:35Z</time></trkpt><trkpt lat="59.7674327251" lon="28.7927897461"><ele>16.00</ele><time>2015-12-04T09:32:50Z</time></trkpt><trkpt lat="59.7675100062" lon="28.7925418932"><ele>16.00</ele><time>2015-12-04T09:33:04Z</time></trkpt><trkpt lat="59.7675325535" lon="28.7924819626"><ele>16.00</ele><time>2015-12-04T09:33:08Z</time></trkpt><trkpt lat="59.7676079068" lon="28.7922377139"><ele>16.00</ele><time>2015-12-04T09:33:21Z</time></trkpt><trkpt lat="59.7676984314" lon="28.7919776235"><ele>16.00</ele><time>2015-12-04T09:33:36Z</time></trkpt><trkpt lat="59.7677634750" lon="28.7917610351"><ele>16.00</ele><time>2015-12-04T09:33:48Z</time></trkpt><trkpt lat="59.7677757125" lon="28.7917174492"><ele>16.00</ele><time>2015-12-04T09:33:59Z</time></trkpt><trkpt lat="59.7678477969" lon="28.7915637251"><ele>16.00</ele><time>2015-12-04T09:34:15Z</time></trkpt><trkpt lat="59.7678991780" lon="28.7913417723"><ele>16.00</ele><time>2015-12-04T09:34:28Z</time></trkpt><trkpt lat="59.7678903770" lon="28.7911854498"><ele>15.52</ele><time>2015-12-04T09:34:41Z</time></trkpt><trkpt lat="59.7679216415" lon="28.7912030518"><ele>16.00</ele><time>2015-12-04T09:35:02Z</time></trkpt><trkpt lat="59.7680800594" lon="28.7910086755"><ele>16.00</ele><time>2015-12-04T09:35:18Z</time></trkpt><trkpt lat="59.7681006789" lon="28.7909530196"><ele>16.00</ele><time>2015-12-04T09:35:22Z</time></trkpt><trkpt lat="59.7681667283" lon="28.7908314820"><ele>16.00</ele><time>2015-12-04T09:35:27Z</time></trkpt><trkpt lat="59.7683076281" lon="28.7906291429"><ele>16.00</ele><time>2015-12-04T09:35:42Z</time></trkpt><trkpt lat="59.7683211230" lon="28.7906207610"><ele>16.00</ele><time>2015-12-04T09:35:43Z</time></trkpt><trkpt lat="59.7685448360" lon="28.7906467449"><ele>16.48</ele><time>2015-12-04T09:36:00Z</time></trkpt><trkpt lat="59.7686528787" lon="28.7906282209"><ele>16.48</ele><time>2015-12-04T09:36:08Z</time></trkpt><trkpt lat="59.7687285673" lon="28.7905981299"><ele>16.00</ele><time>2015-12-04T09:36:14Z</time></trkpt><trkpt lat="59.7687504441" lon="28.7905123830"><ele>16.00</ele><time>2015-12-04T09:36:18Z</time></trkpt><trkpt lat="59.7687827144" lon="28.7904396281"><ele>16.48</ele><time>2015-12-04T09:36:29Z</time></trkpt><trkpt lat="59.7687420622" lon="28.7905218545"><ele>16.48</ele><time>2015-12-04T09:36:41Z</time></trkpt><trkpt lat="59.7687320877" lon="28.7905699667"><ele>16.48</ele><time>2015-12-04T09:36:43Z</time></trkpt><trkpt lat="59.7685522959" lon="28.7906464096"><ele>16.48</ele><time>2015-12-04T09:36:57Z</time></trkpt><trkpt lat="59.7683600150" lon="28.7905865628"><ele>16.00</ele><time>2015-12-04T09:37:10Z</time></trkpt><trkpt lat="59.7682378069" lon="28.7906380277"><ele>16.00</ele><time>2015-12-04T09:37:17Z</time></trkpt><trkpt lat="59.7681591846" lon="28.7908308115"><ele>16.48</ele><time>2015-12-04T09:37:29Z</time></trkpt><trkpt lat="59.7679764591" lon="28.7911679316"><ele>16.00</ele><time>2015-12-04T09:37:45Z</time></trkpt><trkpt lat="59.7678859346" lon="28.7914017029"><ele>16.00</ele><time>2015-12-04T09:37:58Z</time></trkpt><trkpt lat="59.7677896265" lon="28.7917296030"><ele>16.48</ele><time>2015-12-04T09:38:12Z</time></trkpt><trkpt lat="59.7676977608" lon="28.7919696607"><ele>16.00</ele><time>2015-12-04T09:38:20Z</time></trkpt><trkpt lat="59.7676949948" lon="28.7920036912"><ele>16.00</ele><time>2015-12-04T09:38:21Z</time></trkpt><trkpt lat="59.7676896304" lon="28.7920329440"><ele>16.00</ele><time>2015-12-04T09:38:22Z</time></trkpt><trkpt lat="59.7676840145" lon="28.7920573354"><ele>16.48</ele><time>2015-12-04T09:38:23Z</time></trkpt><trkpt lat="59.7676774766" lon="28.7920831516"><ele>16.00</ele><time>2015-12-04T09:38:24Z</time></trkpt><trkpt lat="59.7676465474" lon="28.7922640331"><ele>16.00</ele><time>2015-12-04T09:38:34Z</time></trkpt><trkpt lat="59.7676307894" lon="28.7922906037"><ele>16.00</ele><time>2015-12-04T09:38:35Z</time></trkpt><trkpt lat="59.7676108405" lon="28.7923140731"><ele>16.00</ele><time>2015-12-04T09:38:36Z</time></trkpt><trkpt lat="59.7675920650" lon="28.7923379615"><ele>16.00</ele><time>2015-12-04T09:38:37Z</time></trkpt><trkpt lat="59.7675774805" lon="28.7923636939"><ele>16.00</ele><time>2015-12-04T09:38:38Z</time></trkpt><trkpt lat="59.7675698530" lon="28.7923908513"><ele>16.00</ele><time>2015-12-04T09:38:39Z</time></trkpt><trkpt lat="59.7675098386" lon="28.7925741635"><ele>15.52</ele><time>2015-12-04T09:38:50Z</time></trkpt><trkpt lat="59.7674235050" lon="28.7928749900"><ele>15.04</ele><time>2015-12-04T09:39:04Z</time></trkpt><trkpt lat="59.7673365846" lon="28.7931893952"><ele>15.52</ele><time>2015-12-04T09:39:18Z</time></trkpt><trkpt lat="59.7672889754" lon="28.7935136072"><ele>15.52</ele><time>2015-12-04T09:39:30Z</time></trkpt><trkpt lat="59.7672323976" lon="28.7938609533"><ele>15.52</ele><time>2015-12-04T09:39:44Z</time></trkpt><trkpt lat="59.7671559546" lon="28.7941710837"><ele>15.52</ele><time>2015-12-04T09:39:56Z</time></trkpt><trkpt lat="59.7671465669" lon="28.7942968961"><ele>15.52</ele><time>2015-12-04T09:40:04Z</time></trkpt><trkpt lat="59.7671161406" lon="28.7943495344"><ele>15.52</ele><time>2015-12-04T09:40:07Z</time></trkpt><trkpt lat="59.7670904081" lon="28.7944100518"><ele>15.52</ele><time>2015-12-04T09:40:10Z</time></trkpt><trkpt lat="59.7669977881" lon="28.7944991514"><ele>15.04</ele><time>2015-12-04T09:40:21Z</time></trkpt><trkpt lat="59.7668801900" lon="28.7945465092"><ele>15.52</ele><time>2015-12-04T09:40:33Z</time></trkpt><trkpt lat="59.7668248694" lon="28.7945620157"><ele>15.52</ele><time>2015-12-04T09:40:41Z</time></trkpt><trkpt lat="59.7667471692" lon="28.7945413124"><ele>15.52</ele><time>2015-12-04T09:40:52Z</time></trkpt><trkpt lat="59.7666473407" lon="28.7945262250"><ele>15.04</ele><time>2015-12-04T09:41:05Z</time></trkpt><trkpt lat="59.7665654495" lon="28.7945783604"><ele>15.52</ele><time>2015-12-04T09:41:17Z</time></trkpt><trkpt lat="59.7664823849" lon="28.7946417276"><ele>15.04</ele><time>2015-12-04T09:41:31Z</time></trkpt><trkpt lat="59.7664211132" lon="28.7946215272"><ele>15.04</ele><time>2015-12-04T09:41:43Z</time></trkpt><trkpt lat="59.7663125675" lon="28.7946416438"><ele>15.04</ele><time>2015-12-04T09:41:57Z</time></trkpt><trkpt lat="59.7662331071" lon="28.7947074417"><ele>15.52</ele><time>2015-12-04T09:42:13Z</time></trkpt><trkpt lat="59.7662125714" lon="28.7946678791"><ele>15.04</ele><time>2015-12-04T09:42:31Z</time></trkpt><trkpt lat="59.7661744338" lon="28.7946614251"><ele>15.04</ele><time>2015-12-04T09:42:43Z</time></trkpt><trkpt lat="59.7661750205" lon="28.7947697192"><ele>14.56</ele><time>2015-12-04T09:42:55Z</time></trkpt><trkpt lat="59.7661585081" lon="28.7948118802"><ele>13.60</ele><time>2015-12-04T09:43:07Z</time></trkpt><trkpt lat="59.7661362961" lon="28.7948361877"><ele>14.56</ele><time>2015-12-04T09:43:20Z</time></trkpt><trkpt lat="59.7660856694" lon="28.7948210165"><ele>14.08</ele><time>2015-12-04T09:43:29Z</time></trkpt><trkpt lat="59.7660366353" lon="28.7946980540"><ele>15.04</ele><time>2015-12-04T09:43:44Z</time></trkpt><trkpt lat="59.7660139203" lon="28.7946610060"><ele>15.04</ele><time>2015-12-04T09:44:10Z</time></trkpt><trkpt lat="59.7659799736" lon="28.7946393806"><ele>15.04</ele><time>2015-12-04T09:44:37Z</time></trkpt><trkpt lat="59.7659699991" lon="28.7946593296"><ele>15.52</ele><time>2015-12-04T09:45:02Z</time></trkpt><trkpt lat="59.7660015151" lon="28.7946335971"><ele>15.04</ele><time>2015-12-04T09:45:20Z</time></trkpt><trkpt lat="59.7660009284" lon="28.7945820484"><ele>15.04</ele><time>2015-12-04T09:45:35Z</time></trkpt><trkpt lat="59.7659693286" lon="28.7944964692"><ele>15.04</ele><time>2015-12-04T09:45:47Z</time></trkpt><trkpt lat="59.7659276705" lon="28.7943965569"><ele>15.52</ele><time>2015-12-04T09:45:58Z</time></trkpt><trkpt lat="59.7659177799" lon="28.7943906896"><ele>15.52</ele><time>2015-12-04T09:46:00Z</time></trkpt><trkpt lat="59.7658921313" lon="28.7944072857"><ele>15.52</ele><time>2015-12-04T09:46:07Z</time></trkpt><trkpt lat="59.7658570111" lon="28.7943342794"><ele>15.52</ele><time>2015-12-04T09:46:22Z</time></trkpt><trkpt lat="59.7658610344" lon="28.7943326868"><ele>15.52</ele><time>2015-12-04T09:46:25Z</time></trkpt><trkpt lat="59.7657874413" lon="28.7942569982"><ele>15.52</ele><time>2015-12-04T09:46:37Z</time></trkpt><trkpt lat="59.7657311149" lon="28.7942362111"><ele>15.52</ele><time>2015-12-04T09:46:51Z</time></trkpt><trkpt lat="59.7656702623" lon="28.7942048628"><ele>15.52</ele><time>2015-12-04T09:47:06Z</time></trkpt><trkpt lat="59.7656132653" lon="28.7940639630"><ele>16.48</ele><time>2015-12-04T09:47:18Z</time></trkpt><trkpt lat="59.7655893769" lon="28.7939335406"><ele>16.48</ele><time>2015-12-04T09:47:31Z</time></trkpt><trkpt lat="59.7655463777" lon="28.7937800679"><ele>16.48</ele><time>2015-12-04T09:47:46Z</time></trkpt><trkpt lat="59.7655355651" lon="28.7936680019"><ele>16.48</ele><time>2015-12-04T09:47:58Z</time></trkpt><trkpt lat="59.7654936556" lon="28.7935726997"><ele>16.96</ele><time>2015-12-04T09:48:12Z</time></trkpt><trkpt lat="59.7654570267" lon="28.7934566103"><ele>17.44</ele><time>2015-12-04T09:48:23Z</time></trkpt><trkpt lat="59.7654304560" lon="28.7932892237"><ele>17.92</ele><time>2015-12-04T09:48:35Z</time></trkpt><trkpt lat="59.7654167935" lon="28.7932184804"><ele>17.92</ele><time>2015-12-04T09:48:43Z</time></trkpt><trkpt lat="59.7653880436" lon="28.7931531854"><ele>18.40</ele><time>2015-12-04T09:48:52Z</time></trkpt><trkpt lat="59.7654188052" lon="28.7930627447"><ele>17.44</ele><time>2015-12-04T09:49:02Z</time></trkpt><trkpt lat="59.7654480580" lon="28.7930886447"><ele>17.44</ele><time>2015-12-04T09:49:14Z</time></trkpt><trkpt lat="59.7654206492" lon="28.7931340747"><ele>17.92</ele><time>2015-12-04T09:49:19Z</time></trkpt><trkpt lat="59.7653887141" lon="28.7930763233"><ele>18.40</ele><time>2015-12-04T09:49:32Z</time></trkpt><trkpt lat="59.7653758898" lon="28.7930123694"><ele>18.40</ele><time>2015-12-04T09:50:02Z</time></trkpt><trkpt lat="59.7653958388" lon="28.7930035684"><ele>18.40</ele><time>2015-12-04T09:50:13Z</time></trkpt><trkpt lat="59.7654355690" lon="28.7929272093"><ele>18.40</ele><time>2015-12-04T09:50:20Z</time></trkpt><trkpt lat="59.7654342279" lon="28.7928865571"><ele>18.88</ele><time>2015-12-04T09:50:36Z</time></trkpt><trkpt lat="59.7653489839" lon="28.7929387763"><ele>20.32</ele><time>2015-12-04T09:50:49Z</time></trkpt><trkpt lat="59.7653011233" lon="28.7929055840"><ele>20.32</ele><time>2015-12-04T09:50:54Z</time></trkpt><trkpt lat="59.7652413603" lon="28.7928775884"><ele>20.32</ele><time>2015-12-04T09:51:01Z</time></trkpt><trkpt lat="59.7651909851" lon="28.7929344177"><ele>20.32</ele><time>2015-12-04T09:51:11Z</time></trkpt><trkpt lat="59.7651339881" lon="28.7927822024"><ele>20.81</ele><time>2015-12-04T09:51:22Z</time></trkpt><trkpt lat="59.7651287913" lon="28.7927688751"><ele>20.32</ele><time>2015-12-04T09:51:23Z</time></trkpt><trkpt lat="59.7650911566" lon="28.7927143928"><ele>20.81</ele><time>2015-12-04T09:51:34Z</time></trkpt><trkpt lat="59.7650692798" lon="28.7926868163"><ele>20.81</ele><time>2015-12-04T09:51:57Z</time></trkpt><trkpt lat="59.7650585510" lon="28.7926076911"><ele>21.29</ele><time>2015-12-04T09:52:11Z</time></trkpt><trkpt lat="59.7650437150" lon="28.7925682962"><ele>21.29</ele><time>2015-12-04T09:52:15Z</time></trkpt><trkpt lat="59.7650087625" lon="28.7924648635"><ele>21.29</ele><time>2015-12-04T09:52:30Z</time></trkpt><trkpt lat="59.7650358360" lon="28.7925031688"><ele>21.29</ele><time>2015-12-04T09:52:52Z</time></trkpt><trkpt lat="59.7650184855" lon="28.7924862374"><ele>21.29</ele><time>2015-12-04T09:52:55Z</time></trkpt><trkpt lat="59.7649460658" lon="28.7923160009"><ele>21.77</ele><time>2015-12-04T09:53:07Z</time></trkpt><trkpt lat="59.7648550384" lon="28.7922035996"><ele>21.29</ele><time>2015-12-04T09:53:18Z</time></trkpt><trkpt lat="59.7647843789" lon="28.7921377178"><ele>22.25</ele><time>2015-12-04T09:53:30Z</time></trkpt><trkpt lat="59.7647442296" lon="28.7920177728"><ele>21.77</ele><time>2015-12-04T09:53:43Z</time></trkpt><trkpt lat="59.7646987997" lon="28.7918612827"><ele>22.73</ele><time>2015-12-04T09:53:56Z</time></trkpt><trkpt lat="59.7646803595" lon="28.7918114942"><ele>22.73</ele><time>2015-12-04T09:54:00Z</time></trkpt><trkpt lat="59.7646734864" lon="28.7916539144"><ele>22.25</ele><time>2015-12-04T09:54:12Z</time></trkpt><trkpt lat="59.7646396235" lon="28.7915460393"><ele>22.25</ele><time>2015-12-04T09:54:32Z</time></trkpt><trkpt lat="59.7646409646" lon="28.7915148586"><ele>22.73</ele><time>2015-12-04T09:54:52Z</time></trkpt><trkpt lat="59.7646163218" lon="28.7914193887"><ele>22.73</ele><time>2015-12-04T09:55:02Z</time></trkpt><trkpt lat="59.7645977978" lon="28.7913071550"><ele>22.73</ele><time>2015-12-04T09:55:15Z</time></trkpt><trkpt lat="59.7645809501" lon="28.7912674248"><ele>22.73</ele><time>2015-12-04T09:55:25Z</time></trkpt><trkpt lat="59.7645682935" lon="28.7911762297"><ele>22.73</ele><time>2015-12-04T09:55:39Z</time></trkpt><trkpt lat="59.7645433992" lon="28.7911147065"><ele>23.21</ele><time>2015-12-04T09:55:47Z</time></trkpt><trkpt lat="59.7645053454" lon="28.7909983657"><ele>23.69</ele><time>2015-12-04T09:55:59Z</time></trkpt><trkpt lat="59.7644687165" lon="28.7909034826"><ele>23.21</ele><time>2015-12-04T09:56:07Z</time></trkpt><trkpt lat="59.7644302435" lon="28.7907940987"><ele>23.69</ele><time>2015-12-04T09:56:17Z</time></trkpt><trkpt lat="59.7643985599" lon="28.7906461582"><ele>23.69</ele><time>2015-12-04T09:56:26Z</time></trkpt><trkpt lat="59.7643935308" lon="28.7906330824"><ele>23.69</ele><time>2015-12-04T09:56:27Z</time></trkpt><trkpt lat="59.7643037606" lon="28.7905186694"><ele>24.65</ele><time>2015-12-04T09:56:41Z</time></trkpt><trkpt lat="59.7642944567" lon="28.7904964574"><ele>24.65</ele><time>2015-12-04T09:56:43Z</time></trkpt><trkpt lat="59.7642799560" lon="28.7904760055"><ele>23.69</ele><time>2015-12-04T09:56:45Z</time></trkpt><trkpt lat="59.7641775291" lon="28.7903656997"><ele>24.17</ele><time>2015-12-04T09:56:59Z</time></trkpt><trkpt lat="59.7640958894" lon="28.7903255504"><ele>24.17</ele><time>2015-12-04T09:57:09Z</time></trkpt><trkpt lat="59.7640359588" lon="28.7903147377"><ele>24.65</ele><time>2015-12-04T09:57:18Z</time></trkpt><trkpt lat="59.7639833204" lon="28.7903229520"><ele>24.65</ele><time>2015-12-04T09:57:28Z</time></trkpt><trkpt lat="59.7638918739" lon="28.7902870774"><ele>24.65</ele><time>2015-12-04T09:57:41Z</time></trkpt><trkpt lat="59.7638119943" lon="28.7902798690"><ele>24.65</ele><time>2015-12-04T09:57:55Z</time></trkpt><trkpt lat="59.7637524828" lon="28.7902549747"><ele>24.65</ele><time>2015-12-04T09:58:09Z</time></trkpt><trkpt lat="59.7637459449" lon="28.7902621832"><ele>25.13</ele><time>2015-12-04T09:58:22Z</time></trkpt><trkpt lat="59.7637980804" lon="28.7902428210"><ele>24.65</ele><time>2015-12-04T09:58:36Z</time></trkpt><trkpt lat="59.7638301831" lon="28.7902466767"><ele>25.13</ele><time>2015-12-04T09:58:46Z</time></trkpt><trkpt lat="59.7638420016" lon="28.7902536336"><ele>25.13</ele><time>2015-12-04T09:58:50Z</time></trkpt><trkpt lat="59.7638631240" lon="28.7902218662"><ele>25.61</ele><time>2015-12-04T09:58:55Z</time></trkpt><trkpt lat="59.7638795525" lon="28.7901487760"><ele>25.13</ele><time>2015-12-04T09:59:04Z</time></trkpt><trkpt lat="59.7638427559" lon="28.7901457585"><ele>25.13</ele><time>2015-12-04T09:59:12Z</time></trkpt><trkpt lat="59.7637954820" lon="28.7900373805"><ele>25.13</ele><time>2015-12-04T09:59:24Z</time></trkpt><trkpt lat="59.7637365572" lon="28.7900331058"><ele>25.13</ele><time>2015-12-04T09:59:33Z</time></trkpt><trkpt lat="59.7636435181" lon="28.7899948843"><ele>26.09</ele><time>2015-12-04T09:59:44Z</time></trkpt><trkpt lat="59.7635555919" lon="28.7899327744"><ele>26.09</ele><time>2015-12-04T09:59:56Z</time></trkpt><trkpt lat="59.7634980083" lon="28.7899169326"><ele>26.09</ele><time>2015-12-04T10:00:06Z</time></trkpt><trkpt lat="59.7634229902" lon="28.7898546550"><ele>26.57</ele><time>2015-12-04T10:00:17Z</time></trkpt><trkpt lat="59.7633782309" lon="28.7898386456"><ele>26.09</ele><time>2015-12-04T10:00:23Z</time></trkpt><trkpt lat="59.7632711101" lon="28.7898188643"><ele>26.57</ele><time>2015-12-04T10:00:35Z</time></trkpt><trkpt lat="59.7632400971" lon="28.7898191996"><ele>27.05</ele><time>2015-12-04T10:00:45Z</time></trkpt><trkpt lat="59.7632004507" lon="28.7897601072"><ele>27.05</ele><time>2015-12-04T10:00:54Z</time></trkpt><trkpt lat="59.7631847765" lon="28.7896715105"><ele>27.05</ele><time>2015-12-04T10:01:05Z</time></trkpt><trkpt lat="59.7631879617" lon="28.7896603625"><ele>26.57</ele><time>2015-12-04T10:01:06Z</time></trkpt><trkpt lat="59.7632009536" lon="28.7896502204"><ele>28.02</ele><time>2015-12-04T10:01:09Z</time></trkpt><trkpt lat="59.7631829325" lon="28.7896793894"><ele>28.02</ele><time>2015-12-04T10:01:33Z</time></trkpt><trkpt lat="59.7631624807" lon="28.7897036131"><ele>27.53</ele><time>2015-12-04T10:01:53Z</time></trkpt><trkpt lat="59.7631559428" lon="28.7897052895"><ele>27.05</ele><time>2015-12-04T10:01:54Z</time></trkpt><trkpt lat="59.7630095109" lon="28.7896471191"><ele>27.53</ele><time>2015-12-04T10:02:08Z</time></trkpt><trkpt lat="59.7629456408" lon="28.7896256614"><ele>27.53</ele><time>2015-12-04T10:02:15Z</time></trkpt><trkpt lat="59.7628949303" lon="28.7895635515"><ele>27.53</ele><time>2015-12-04T10:02:21Z</time></trkpt><trkpt lat="59.7628738079" lon="28.7895608693"><ele>28.50</ele><time>2015-12-04T10:02:24Z</time></trkpt><trkpt lat="59.7627751529" lon="28.7895099074"><ele>28.50</ele><time>2015-12-04T10:02:35Z</time></trkpt><trkpt lat="59.7627604846" lon="28.7895069737"><ele>28.50</ele><time>2015-12-04T10:02:37Z</time></trkpt><trkpt lat="59.7626939323" lon="28.7894633878"><ele>29.46</ele><time>2015-12-04T10:02:48Z</time></trkpt><trkpt lat="59.7626335826" lon="28.7894615438"><ele>28.98</ele><time>2015-12-04T10:02:59Z</time></trkpt><trkpt lat="59.7626028210" lon="28.7894345541"><ele>29.94</ele><time>2015-12-04T10:03:05Z</time></trkpt><trkpt lat="59.7625107877" lon="28.7894133478"><ele>30.42</ele><time>2015-12-04T10:03:18Z</time></trkpt><trkpt lat="59.7623928543" lon="28.7894622143"><ele>29.94</ele><time>2015-12-04T10:03:33Z</time></trkpt><trkpt lat="59.7623620927" lon="28.7894884497"><ele>30.42</ele><time>2015-12-04T10:03:46Z</time></trkpt><trkpt lat="59.7623183392" lon="28.7895399984"><ele>30.42</ele><time>2015-12-04T10:03:58Z</time></trkpt><trkpt lat="59.7622158285" lon="28.7896374799"><ele>30.90</ele><time>2015-12-04T10:04:11Z</time></trkpt><trkpt lat="59.7621378768" lon="28.7896813173"><ele>30.42</ele><time>2015-12-04T10:04:24Z</time></trkpt><trkpt lat="59.7621154971" lon="28.7897140067"><ele>30.90</ele><time>2015-12-04T10:04:27Z</time></trkpt><trkpt lat="59.7620530520" lon="28.7897664774"><ele>30.90</ele><time>2015-12-04T10:04:41Z</time></trkpt><trkpt lat="59.7619867511" lon="28.7897753622"><ele>29.94</ele><time>2015-12-04T10:05:08Z</time></trkpt><trkpt lat="59.7619324364" lon="28.7898300961"><ele>29.46</ele><time>2015-12-04T10:05:23Z</time></trkpt><trkpt lat="59.7618991602" lon="28.7898513861"><ele>29.46</ele><time>2015-12-04T10:05:37Z</time></trkpt><trkpt lat="59.7618714161" lon="28.7898663897"><ele>29.94</ele><time>2015-12-04T10:05:58Z</time></trkpt><trkpt lat="59.7618348710" lon="28.7898351252"><ele>29.94</ele><time>2015-12-04T10:06:12Z</time></trkpt><trkpt lat="59.7617884353" lon="28.7898445968"><ele>29.46</ele><time>2015-12-04T10:06:28Z</time></trkpt><trkpt lat="59.7617472801" lon="28.7898224685"><ele>30.42</ele><time>2015-12-04T10:06:47Z</time></trkpt><trkpt lat="59.7616917081" lon="28.7898419145"><ele>30.42</ele><time>2015-12-04T10:06:59Z</time></trkpt><trkpt lat="59.7616101522" lon="28.7898203731"><ele>30.42</ele><time>2015-12-04T10:07:14Z</time></trkpt><trkpt lat="59.7615498025" lon="28.7899100594"><ele>30.90</ele><time>2015-12-04T10:07:31Z</time></trkpt><trkpt lat="59.7615228128" lon="28.7898830697"><ele>30.42</ele><time>2015-12-04T10:07:46Z</time></trkpt><trkpt lat="59.7615239862" lon="28.7898764480"><ele>30.42</ele><time>2015-12-04T10:07:47Z</time></trkpt><trkpt lat="59.7615649737" lon="28.7897743564"><ele>30.90</ele><time>2015-12-04T10:08:02Z</time></trkpt><trkpt lat="59.7615555022" lon="28.7897954788"><ele>30.90</ele><time>2015-12-04T10:08:29Z</time></trkpt><trkpt lat="59.7615238186" lon="28.7898792978"><ele>30.90</ele><time>2015-12-04T10:08:48Z</time></trkpt><trkpt lat="59.7614767123" lon="28.7899037730"><ele>30.90</ele><time>2015-12-04T10:09:02Z</time></trkpt><trkpt lat="59.7614464536" lon="28.7899469398"><ele>30.90</ele><time>2015-12-04T10:09:19Z</time></trkpt><trkpt lat="59.7614394967" lon="28.7899610214"><ele>30.90</ele><time>2015-12-04T10:09:33Z</time></trkpt><trkpt lat="59.7614457831" lon="28.7899628654"><ele>30.90</ele><time>2015-12-04T10:09:51Z</time></trkpt><trkpt lat="59.7614200506" lon="28.7900260650"><ele>30.90</ele><time>2015-12-04T10:10:05Z</time></trkpt><trkpt lat="59.7613723576" lon="28.7901315931"><ele>30.42</ele><time>2015-12-04T10:10:17Z</time></trkpt><trkpt lat="59.7613159474" lon="28.7901968881"><ele>30.90</ele><time>2015-12-04T10:10:30Z</time></trkpt><trkpt lat="59.7612711042" lon="28.7901984807"><ele>30.42</ele><time>2015-12-04T10:10:49Z</time></trkpt><trkpt lat="59.7612305358" lon="28.7902646139"><ele>30.42</ele><time>2015-12-04T10:11:04Z</time></trkpt><trkpt lat="59.7611877043" lon="28.7903847266"><ele>30.90</ele><time>2015-12-04T10:11:17Z</time></trkpt><trkpt lat="59.7611404303" lon="28.7905355170"><ele>30.42</ele><time>2015-12-04T10:11:33Z</time></trkpt><trkpt lat="59.7611097526" lon="28.7906759139"><ele>30.42</ele><time>2015-12-04T10:11:44Z</time></trkpt><trkpt lat="59.7610541806" lon="28.7909008842"><ele>30.90</ele><time>2015-12-04T10:11:58Z</time></trkpt><trkpt lat="59.7610144503" lon="28.7910204101"><ele>30.90</ele><time>2015-12-04T10:12:11Z</time></trkpt><trkpt lat="59.7610152885" lon="28.7911789119"><ele>31.38</ele><time>2015-12-04T10:12:24Z</time></trkpt><trkpt lat="59.7610231675" lon="28.7913481425"><ele>30.90</ele><time>2015-12-04T10:12:35Z</time></trkpt><trkpt lat="59.7610331420" lon="28.7914237473"><ele>30.90</ele><time>2015-12-04T10:12:51Z</time></trkpt><trkpt lat="59.7610420268" lon="28.7914467975"><ele>30.42</ele><time>2015-12-04T10:13:09Z</time></trkpt><trkpt lat="59.7610256821" lon="28.7914842647"><ele>29.94</ele><time>2015-12-04T10:13:42Z</time></trkpt><trkpt lat="59.7610423621" lon="28.7915109191"><ele>30.42</ele><time>2015-12-04T10:14:06Z</time></trkpt><trkpt lat="59.7610429488" lon="28.7915199716"><ele>30.90</ele><time>2015-12-04T10:14:34Z</time></trkpt><trkpt lat="59.7609993629" lon="28.7914888747"><ele>30.90</ele><time>2015-12-04T10:14:57Z</time></trkpt><trkpt lat="59.7610113490" lon="28.7914166227"><ele>30.90</ele><time>2015-12-04T10:15:10Z</time></trkpt><trkpt lat="59.7610067390" lon="28.7914617173"><ele>30.42</ele><time>2015-12-04T10:15:29Z</time></trkpt><trkpt lat="59.7610257659" lon="28.7915316224"><ele>30.90</ele><time>2015-12-04T10:15:55Z</time></trkpt><trkpt lat="59.7610347345" lon="28.7916066404"><ele>30.90</ele><time>2015-12-04T10:16:12Z</time></trkpt><trkpt lat="59.7610522527" lon="28.7916755397"><ele>30.90</ele><time>2015-12-04T10:16:30Z</time></trkpt><trkpt lat="59.7610580362" lon="28.7917913776"><ele>31.38</ele><time>2015-12-04T10:16:44Z</time></trkpt><trkpt lat="59.7610565275" lon="28.7918237317"><ele>31.38</ele><time>2015-12-04T10:16:47Z</time></trkpt><trkpt lat="59.7610551026" lon="28.7920365483"><ele>30.90</ele><time>2015-12-04T10:16:59Z</time></trkpt><trkpt lat="59.7610047273" lon="28.7921538949"><ele>30.90</ele><time>2015-12-04T10:17:12Z</time></trkpt><trkpt lat="59.7609808389" lon="28.7921648752"><ele>30.90</ele><time>2015-12-04T10:17:28Z</time></trkpt><trkpt lat="59.7609421145" lon="28.7921508774"><ele>30.90</ele><time>2015-12-04T10:17:33Z</time></trkpt><trkpt lat="59.7608179785" lon="28.7921704073"><ele>31.86</ele><time>2015-12-04T10:17:46Z</time></trkpt><trkpt lat="59.7607539408" lon="28.7922155019"><ele>30.90</ele><time>2015-12-04T10:17:57Z</time></trkpt><trkpt lat="59.7607260291" lon="28.7923135702"><ele>31.38</ele><time>2015-12-04T10:18:06Z</time></trkpt><trkpt lat="59.7606873885" lon="28.7924325094"><ele>30.42</ele><time>2015-12-04T10:18:18Z</time></trkpt><trkpt lat="59.7606256977" lon="28.7924758438"><ele>30.90</ele><time>2015-12-04T10:18:31Z</time></trkpt><trkpt lat="59.7605298925" lon="28.7925256323"><ele>31.86</ele><time>2015-12-04T10:18:44Z</time></trkpt><trkpt lat="59.7604488395" lon="28.7924685515"><ele>32.34</ele><time>2015-12-04T10:18:57Z</time></trkpt><trkpt lat="59.7603887413" lon="28.7925036717"><ele>32.82</ele><time>2015-12-04T10:19:07Z</time></trkpt><trkpt lat="59.7603004798" lon="28.7925438210"><ele>32.82</ele><time>2015-12-04T10:19:19Z</time></trkpt><trkpt lat="59.7602630965" lon="28.7926032487"><ele>32.82</ele><time>2015-12-04T10:19:36Z</time></trkpt><trkpt lat="59.7602805309" lon="28.7926043384"><ele>32.34</ele><time>2015-12-04T10:19:55Z</time></trkpt><trkpt lat="59.7601589095" lon="28.7926760036"><ele>32.82</ele><time>2015-12-04T10:20:11Z</time></trkpt><trkpt lat="59.7600843944" lon="28.7926887441"><ele>33.30</ele><time>2015-12-04T10:20:23Z</time></trkpt><trkpt lat="59.7599992342" lon="28.7927868124"><ele>33.30</ele><time>2015-12-04T10:20:36Z</time></trkpt><trkpt lat="59.7599823028" lon="28.7927686237"><ele>33.30</ele><time>2015-12-04T10:20:38Z</time></trkpt><trkpt lat="59.7599663772" lon="28.7927419692"><ele>33.30</ele><time>2015-12-04T10:20:40Z</time></trkpt><trkpt lat="59.7599412315" lon="28.7926911749"><ele>33.30</ele><time>2015-12-04T10:20:54Z</time></trkpt><trkpt lat="59.7599645332" lon="28.7926568929"><ele>33.30</ele><time>2015-12-04T10:21:05Z</time></trkpt><trkpt lat="59.7599007469" lon="28.7926395424"><ele>33.30</ele><time>2015-12-04T10:21:20Z</time></trkpt><trkpt lat="59.7598069534" lon="28.7926480919"><ele>33.30</ele><time>2015-12-04T10:21:32Z</time></trkpt><trkpt lat="59.7597511299" lon="28.7925682124"><ele>33.78</ele><time>2015-12-04T10:21:44Z</time></trkpt><trkpt lat="59.7597130761" lon="28.7925391272"><ele>32.82</ele><time>2015-12-04T10:21:55Z</time></trkpt><trkpt lat="59.7596802190" lon="28.7925026659"><ele>31.86</ele><time>2015-12-04T10:22:09Z</time></trkpt><trkpt lat="59.7596372198" lon="28.7924382091"><ele>31.38</ele><time>2015-12-04T10:22:27Z</time></trkpt><trkpt lat="59.7595969867" lon="28.7924659532"><ele>31.86</ele><time>2015-12-04T10:22:38Z</time></trkpt><trkpt lat="59.7595575918" lon="28.7924827170"><ele>31.86</ele><time>2015-12-04T10:22:55Z</time></trkpt><trkpt lat="59.7594814003" lon="28.7924840581"><ele>31.38</ele><time>2015-12-04T10:23:07Z</time></trkpt><trkpt lat="59.7593925521" lon="28.7924180925"><ele>31.38</ele><time>2015-12-04T10:23:18Z</time></trkpt><trkpt lat="59.7593382373" lon="28.7923750095"><ele>31.38</ele><time>2015-12-04T10:23:25Z</time></trkpt><trkpt lat="59.7592313681" lon="28.7923504505"><ele>31.86</ele><time>2015-12-04T10:23:38Z</time></trkpt><trkpt lat="59.7591864411" lon="28.7922620215"><ele>31.38</ele><time>2015-12-04T10:23:50Z</time></trkpt><trkpt lat="59.7591250017" lon="28.7922366243"><ele>30.42</ele><time>2015-12-04T10:24:00Z</time></trkpt><trkpt lat="59.7590596229" lon="28.7922131550"><ele>30.90</ele><time>2015-12-04T10:24:10Z</time></trkpt><trkpt lat="59.7589827608" lon="28.7922089640"><ele>30.90</ele><time>2015-12-04T10:24:21Z</time></trkpt><trkpt lat="59.7589144483" lon="28.7921725865"><ele>30.90</ele><time>2015-12-04T10:24:33Z</time></trkpt><trkpt lat="59.7588846087" lon="28.7921284977"><ele>30.90</ele><time>2015-12-04T10:24:45Z</time></trkpt><trkpt lat="59.7588857822" lon="28.7920775358"><ele>31.38</ele><time>2015-12-04T10:25:11Z</time></trkpt><trkpt lat="59.7588335630" lon="28.7921214569"><ele>30.90</ele><time>2015-12-04T10:25:30Z</time></trkpt><trkpt lat="59.7588068247" lon="28.7921035197"><ele>30.42</ele><time>2015-12-04T10:25:34Z</time></trkpt><trkpt lat="59.7587931622" lon="28.7919820659"><ele>30.90</ele><time>2015-12-04T10:25:40Z</time></trkpt><trkpt lat="59.7587724589" lon="28.7919505499"><ele>31.38</ele><time>2015-12-04T10:25:43Z</time></trkpt><trkpt lat="59.7587541025" lon="28.7919170223"><ele>31.38</ele><time>2015-12-04T10:25:46Z</time></trkpt><trkpt lat="59.7587193176" lon="28.7918699998"><ele>31.38</ele><time>2015-12-04T10:25:57Z</time></trkpt><trkpt lat="59.7586889751" lon="28.7918197922"><ele>30.90</ele><time>2015-12-04T10:26:03Z</time></trkpt><trkpt lat="59.7585795913" lon="28.7916493881"><ele>30.42</ele><time>2015-12-04T10:26:14Z</time></trkpt><trkpt lat="59.7584816068" lon="28.7915338855"><ele>30.90</ele><time>2015-12-04T10:26:26Z</time></trkpt><trkpt lat="59.7584665194" lon="28.7915124279"><ele>30.90</ele><time>2015-12-04T10:26:28Z</time></trkpt><trkpt lat="59.7583816107" lon="28.7914110068"><ele>30.42</ele><time>2015-12-04T10:26:39Z</time></trkpt><trkpt lat="59.7583609074" lon="28.7913956679"><ele>30.42</ele><time>2015-12-04T10:26:46Z</time></trkpt><trkpt lat="59.7583308164" lon="28.7914438639"><ele>30.42</ele><time>2015-12-04T10:27:00Z</time></trkpt><trkpt lat="59.7582553793" lon="28.7915047165"><ele>30.42</ele><time>2015-12-04T10:27:13Z</time></trkpt><trkpt lat="59.7582325805" lon="28.7914109230"><ele>30.90</ele><time>2015-12-04T10:27:26Z</time></trkpt><trkpt lat="59.7582231089" lon="28.7913876213"><ele>30.90</ele><time>2015-12-04T10:27:28Z</time></trkpt><trkpt lat="59.7582114581" lon="28.7912324723"><ele>30.90</ele><time>2015-12-04T10:27:37Z</time></trkpt><trkpt lat="59.7581534553" lon="28.7910744734"><ele>30.42</ele><time>2015-12-04T10:27:48Z</time></trkpt><trkpt lat="59.7581385355" lon="28.7909945939"><ele>29.94</ele><time>2015-12-04T10:27:58Z</time></trkpt><trkpt lat="59.7580866516" lon="28.7909686100"><ele>30.90</ele><time>2015-12-04T10:28:10Z</time></trkpt><trkpt lat="59.7580226976" lon="28.7911180593"><ele>30.42</ele><time>2015-12-04T10:28:23Z</time></trkpt><trkpt lat="59.7580201831" lon="28.7911218312"><ele>30.42</ele><time>2015-12-04T10:28:24Z</time></trkpt><trkpt lat="59.7579840571" lon="28.7910462264"><ele>30.90</ele><time>2015-12-04T10:28:37Z</time></trkpt><trkpt lat="59.7579697240" lon="28.7910055742"><ele>30.90</ele><time>2015-12-04T10:28:51Z</time></trkpt><trkpt lat="59.7579853982" lon="28.7910499144"><ele>31.38</ele><time>2015-12-04T10:29:13Z</time></trkpt><trkpt lat="59.7579447459" lon="28.7910061609"><ele>30.90</ele><time>2015-12-04T10:29:27Z</time></trkpt><trkpt lat="59.7579018306" lon="28.7910154648"><ele>30.42</ele><time>2015-12-04T10:29:39Z</time></trkpt><trkpt lat="59.7578864917" lon="28.7910147104"><ele>30.42</ele><time>2015-12-04T10:29:41Z</time></trkpt><trkpt lat="59.7578089591" lon="28.7909704540"><ele>30.90</ele><time>2015-12-04T10:29:53Z</time></trkpt><trkpt lat="59.7577737551" lon="28.7909034826"><ele>30.42</ele><time>2015-12-04T10:30:06Z</time></trkpt><trkpt lat="59.7577803768" lon="28.7908706255"><ele>29.94</ele><time>2015-12-04T10:30:12Z</time></trkpt><trkpt lat="59.7577660438" lon="28.7908634171"><ele>29.46</ele><time>2015-12-04T10:30:23Z</time></trkpt><trkpt lat="59.7577770241" lon="28.7909181509"><ele>30.42</ele><time>2015-12-04T10:30:32Z</time></trkpt><trkpt lat="59.7577440832" lon="28.7908300571"><ele>30.42</ele><time>2015-12-04T10:30:47Z</time></trkpt><trkpt lat="59.7577641997" lon="28.7907209247"><ele>30.90</ele><time>2015-12-04T10:31:03Z</time></trkpt><trkpt lat="59.7577908542" lon="28.7905996386"><ele>30.90</ele><time>2015-12-04T10:31:17Z</time></trkpt><trkpt lat="59.7577504534" lon="28.7905608304"><ele>30.90</ele><time>2015-12-04T10:31:29Z</time></trkpt><trkpt lat="59.7577534709" lon="28.7904915959"><ele>30.42</ele><time>2015-12-04T10:31:41Z</time></trkpt><trkpt lat="59.7577554826" lon="28.7904858124"><ele>30.90</ele><time>2015-12-04T10:31:43Z</time></trkpt><trkpt lat="59.7577829752" lon="28.7904596608"><ele>30.90</ele><time>2015-12-04T10:31:47Z</time></trkpt><trkpt lat="59.7577780299" lon="28.7904206011"><ele>30.42</ele><time>2015-12-04T10:31:52Z</time></trkpt><trkpt lat="59.7577932011" lon="28.7903109659"><ele>30.42</ele><time>2015-12-04T10:32:00Z</time></trkpt><trkpt lat="59.7578088753" lon="28.7902410608"><ele>30.90</ele><time>2015-12-04T10:32:12Z</time></trkpt><trkpt lat="59.7578295786" lon="28.7902520411"><ele>29.46</ele><time>2015-12-04T10:32:30Z</time></trkpt><trkpt lat="59.7578870784" lon="28.7901686411"><ele>30.90</ele><time>2015-12-04T10:32:43Z</time></trkpt><trkpt lat="59.7579312511" lon="28.7901861593"><ele>30.90</ele><time>2015-12-04T10:32:55Z</time></trkpt><trkpt lat="59.7579654492" lon="28.7901296653"><ele>30.90</ele><time>2015-12-04T10:33:08Z</time></trkpt><trkpt lat="59.7580000665" lon="28.7900957186"><ele>30.90</ele><time>2015-12-04T10:33:22Z</time></trkpt><trkpt lat="59.7580019943" lon="28.7899507117"><ele>30.90</ele><time>2015-12-04T10:33:35Z</time></trkpt><trkpt lat="59.7580083646" lon="28.7899069581"><ele>30.90</ele><time>2015-12-04T10:33:52Z</time></trkpt><trkpt lat="59.7580756713" lon="28.7897758652"><ele>30.90</ele><time>2015-12-04T10:34:06Z</time></trkpt><trkpt lat="59.7580812033" lon="28.7896499690"><ele>31.38</ele><time>2015-12-04T10:34:17Z</time></trkpt><trkpt lat="59.7580659483" lon="28.7895142660"><ele>30.90</ele><time>2015-12-04T10:34:31Z</time></trkpt><trkpt lat="59.7580606677" lon="28.7895024475"><ele>30.90</ele><time>2015-12-04T10:34:32Z</time></trkpt><trkpt lat="59.7580609191" lon="28.7893799879"><ele>30.90</ele><time>2015-12-04T10:34:46Z</time></trkpt><trkpt lat="59.7580775153" lon="28.7893658224"><ele>30.90</ele><time>2015-12-04T10:35:00Z</time></trkpt><trkpt lat="59.7580508608" lon="28.7893060595"><ele>30.90</ele><time>2015-12-04T10:35:17Z</time></trkpt><trkpt lat="59.7580121364" lon="28.7893010303"><ele>31.38</ele><time>2015-12-04T10:35:40Z</time></trkpt><trkpt lat="59.7580027487" lon="28.7893086579"><ele>31.38</ele><time>2015-12-04T10:36:04Z</time></trkpt><trkpt lat="59.7579780221" lon="28.7893023714"><ele>31.86</ele><time>2015-12-04T10:36:29Z</time></trkpt><trkpt lat="59.7579894215" lon="28.7893324625"><ele>29.94</ele><time>2015-12-04T10:36:56Z</time></trkpt><trkpt lat="59.7579689696" lon="28.7893512379"><ele>32.82</ele><time>2015-12-04T10:37:06Z</time></trkpt><trkpt lat="59.7579935286" lon="28.7893089931"><ele>32.34</ele><time>2015-12-04T10:37:36Z</time></trkpt><trkpt lat="59.7579964623" lon="28.7892749626"><ele>32.34</ele><time>2015-12-04T10:37:49Z</time></trkpt><trkpt lat="59.7579583246" lon="28.7892900500"><ele>32.34</ele><time>2015-12-04T10:38:08Z</time></trkpt><trkpt lat="59.7579219472" lon="28.7891315483"><ele>32.82</ele><time>2015-12-04T10:38:22Z</time></trkpt><trkpt lat="59.7578450013" lon="28.7889637426"><ele>33.30</ele><time>2015-12-04T10:38:35Z</time></trkpt><trkpt lat="59.7577913571" lon="28.7888890598"><ele>34.26</ele><time>2015-12-04T10:38:47Z</time></trkpt><trkpt lat="59.7577641159" lon="28.7886601500"><ele>34.26</ele><time>2015-12-04T10:39:00Z</time></trkpt><trkpt lat="59.7577455919" lon="28.7886104453"><ele>34.26</ele><time>2015-12-04T10:39:15Z</time></trkpt><trkpt lat="59.7576802131" lon="28.7884945236"><ele>34.26</ele><time>2015-12-04T10:39:39Z</time></trkpt><trkpt lat="59.7576552350" lon="28.7884023227"><ele>33.30</ele><time>2015-12-04T10:39:52Z</time></trkpt><trkpt lat="59.7575793788" lon="28.7884188350"><ele>33.30</ele><time>2015-12-04T10:40:10Z</time></trkpt><trkpt lat="59.7574289236" lon="28.7883194257"><ele>32.82</ele><time>2015-12-04T10:40:26Z</time></trkpt><trkpt lat="59.7574140877" lon="28.7883189227"><ele>32.82</ele><time>2015-12-04T10:40:36Z</time></trkpt><trkpt lat="59.7574290913" lon="28.7882331759"><ele>33.30</ele><time>2015-12-04T10:40:50Z</time></trkpt><trkpt lat="59.7574049514" lon="28.7880467623"><ele>32.34</ele><time>2015-12-04T10:41:03Z</time></trkpt><trkpt lat="59.7573985811" lon="28.7879162561"><ele>32.82</ele><time>2015-12-04T10:41:26Z</time></trkpt><trkpt lat="59.7573425062" lon="28.7877661362"><ele>32.82</ele><time>2015-12-04T10:41:40Z</time></trkpt><trkpt lat="59.7572347149" lon="28.7876574229"><ele>32.34</ele><time>2015-12-04T10:41:56Z</time></trkpt><trkpt lat="59.7573135048" lon="28.7875460275"><ele>32.82</ele><time>2015-12-04T10:42:11Z</time></trkpt><trkpt lat="59.7573920432" lon="28.7873906270"><ele>32.82</ele><time>2015-12-04T10:42:22Z</time></trkpt><trkpt lat="59.7573539056" lon="28.7871886231"><ele>32.82</ele><time>2015-12-04T10:42:36Z</time></trkpt><trkpt lat="59.7574068792" lon="28.7869538460"><ele>33.30</ele><time>2015-12-04T10:42:50Z</time></trkpt><trkpt lat="59.7574951407" lon="28.7867815141"><ele>33.78</ele><time>2015-12-04T10:43:06Z</time></trkpt><trkpt lat="59.7574273311" lon="28.7867373414"><ele>33.30</ele><time>2015-12-04T10:43:26Z</time></trkpt><trkpt lat="59.7574153449" lon="28.7867409457"><ele>33.30</ele><time>2015-12-04T10:43:28Z</time></trkpt><trkpt lat="59.7573420871" lon="28.7866802607"><ele>33.30</ele><time>2015-12-04T10:43:40Z</time></trkpt><trkpt lat="59.7573254909" lon="28.7865054980"><ele>33.30</ele><time>2015-12-04T10:43:52Z</time></trkpt><trkpt lat="59.7572898678" lon="28.7864064239"><ele>33.30</ele><time>2015-12-04T10:44:05Z</time></trkpt><trkpt lat="59.7572782170" lon="28.7864108663"><ele>33.30</ele><time>2015-12-04T10:44:07Z</time></trkpt><trkpt lat="59.7571879439" lon="28.7863842119"><ele>33.30</ele><time>2015-12-04T10:44:19Z</time></trkpt><trkpt lat="59.7571351379" lon="28.7863453198"><ele>33.30</ele><time>2015-12-04T10:44:30Z</time></trkpt><trkpt lat="59.7571111657" lon="28.7864282168"><ele>33.78</ele><time>2015-12-04T10:44:41Z</time></trkpt><trkpt lat="59.7570894565" lon="28.7864010595"><ele>33.78</ele><time>2015-12-04T10:44:57Z</time></trkpt><trkpt lat="59.7571254149" lon="28.7863000575"><ele>33.30</ele><time>2015-12-04T10:45:07Z</time></trkpt><trkpt lat="59.7571477946" lon="28.7862108741"><ele>33.30</ele><time>2015-12-04T10:45:16Z</time></trkpt><trkpt lat="59.7571528237" lon="28.7861824594"><ele>34.26</ele><time>2015-12-04T10:45:21Z</time></trkpt><trkpt lat="59.7571682464" lon="28.7860441580"><ele>33.78</ele><time>2015-12-04T10:45:32Z</time></trkpt><trkpt lat="59.7571600322" lon="28.7860373687"><ele>33.78</ele><time>2015-12-04T10:45:34Z</time></trkpt><trkpt lat="59.7571497224" lon="28.7860125583"><ele>29.94</ele><time>2015-12-04T10:45:36Z</time></trkpt><trkpt lat="59.7571468726" lon="28.7859969679"><ele>37.15</ele><time>2015-12-04T10:45:37Z</time></trkpt><trkpt lat="59.7571001854" lon="28.7859040126"><ele>34.26</ele><time>2015-12-04T10:45:47Z</time></trkpt><trkpt lat="59.7571242414" lon="28.7858268991"><ele>32.82</ele><time>2015-12-04T10:45:55Z</time></trkpt><trkpt lat="59.7571278457" lon="28.7857280765"><ele>34.26</ele><time>2015-12-04T10:46:07Z</time></trkpt><trkpt lat="59.7571654804" lon="28.7857165933"><ele>33.78</ele><time>2015-12-04T10:46:18Z</time></trkpt><trkpt lat="59.7571727727" lon="28.7857015897"><ele>33.30</ele><time>2015-12-04T10:46:33Z</time></trkpt><trkpt lat="59.7571739461" lon="28.7856252305"><ele>33.30</ele><time>2015-12-04T10:46:37Z</time></trkpt><trkpt lat="59.7571482137" lon="28.7854371406"><ele>33.30</ele><time>2015-12-04T10:46:48Z</time></trkpt><trkpt lat="59.7571468726" lon="28.7854247354"><ele>33.30</ele><time>2015-12-04T10:46:49Z</time></trkpt><trkpt lat="59.7571171168" lon="28.7852471229"><ele>33.30</ele><time>2015-12-04T10:47:00Z</time></trkpt><trkpt lat="59.7570770513" lon="28.7851861026"><ele>32.82</ele><time>2015-12-04T10:47:14Z</time></trkpt><trkpt lat="59.7570192162" lon="28.7850825023"><ele>32.34</ele><time>2015-12-04T10:47:27Z</time></trkpt><trkpt lat="59.7570144385" lon="28.7850637268"><ele>32.82</ele><time>2015-12-04T10:47:45Z</time></trkpt><trkpt lat="59.7569684219" lon="28.7851400021"><ele>33.30</ele><time>2015-12-04T10:47:53Z</time></trkpt><trkpt lat="59.7569013666" lon="28.7851209752"><ele>33.30</ele><time>2015-12-04T10:48:03Z</time></trkpt><trkpt lat="59.7568249237" lon="28.7851708476"><ele>33.30</ele><time>2015-12-04T10:48:16Z</time></trkpt><trkpt lat="59.7567857802" lon="28.7851765472"><ele>33.30</ele><time>2015-12-04T10:48:25Z</time></trkpt><trkpt lat="59.7567483131" lon="28.7850147765"><ele>32.82</ele><time>2015-12-04T10:48:36Z</time></trkpt><trkpt lat="59.7567621432" lon="28.7849288620"><ele>32.82</ele><time>2015-12-04T10:48:46Z</time></trkpt><trkpt lat="59.7566891368" lon="28.7849016208"><ele>32.82</ele><time>2015-12-04T10:48:56Z</time></trkpt><trkpt lat="59.7566365823" lon="28.7847862020"><ele>32.82</ele><time>2015-12-04T10:49:08Z</time></trkpt><trkpt lat="59.7566126101" lon="28.7846961804"><ele>32.82</ele><time>2015-12-04T10:49:19Z</time></trkpt><trkpt lat="59.7566096764" lon="28.7846732978"><ele>32.82</ele><time>2015-12-04T10:49:36Z</time></trkpt><trkpt lat="59.7565675993" lon="28.7846559472"><ele>32.82</ele><time>2015-12-04T10:49:49Z</time></trkpt><trkpt lat="59.7565494105" lon="28.7845388521"><ele>33.30</ele><time>2015-12-04T10:50:03Z</time></trkpt><trkpt lat="59.7565774899" lon="28.7846893910"><ele>33.30</ele><time>2015-12-04T10:50:13Z</time></trkpt><trkpt lat="59.7565999534" lon="28.7847618107"><ele>33.30</ele><time>2015-12-04T10:50:24Z</time></trkpt><trkpt lat="59.7566484008" lon="28.7848189753"><ele>33.78</ele><time>2015-12-04T10:50:34Z</time></trkpt><trkpt lat="59.7566801682" lon="28.7848667521"><ele>33.30</ele><time>2015-12-04T10:50:55Z</time></trkpt><trkpt lat="59.7566818446" lon="28.7848769780"><ele>33.78</ele><time>2015-12-04T10:51:23Z</time></trkpt><trkpt lat="59.7566643264" lon="28.7847970147"><ele>33.78</ele><time>2015-12-04T10:51:40Z</time></trkpt><trkpt lat="59.7566506639" lon="28.7847660854"><ele>33.78</ele><time>2015-12-04T10:52:09Z</time></trkpt><trkpt lat="59.7566198185" lon="28.7847020477"><ele>33.78</ele><time>2015-12-04T10:52:36Z</time></trkpt><trkpt lat="59.7566354927" lon="28.7846872117"><ele>33.78</ele><time>2015-12-04T10:52:59Z</time></trkpt><trkpt lat="59.7566482332" lon="28.7847573683"><ele>34.26</ele><time>2015-12-04T10:53:26Z</time></trkpt><trkpt lat="59.7566714510" lon="28.7848313805"><ele>34.74</ele><time>2015-12-04T10:53:46Z</time></trkpt><trkpt lat="59.7566572856" lon="28.7848594598"><ele>34.26</ele><time>2015-12-04T10:54:03Z</time></trkpt><trkpt lat="59.7566164657" lon="28.7850219011"><ele>34.74</ele><time>2015-12-04T10:54:16Z</time></trkpt><trkpt lat="59.7565341555" lon="28.7849687599"><ele>34.26</ele><time>2015-12-04T10:54:33Z</time></trkpt><trkpt lat="59.7565184813" lon="28.7848852761"><ele>34.74</ele><time>2015-12-04T10:54:45Z</time></trkpt><trkpt lat="59.7565164696" lon="28.7848214898"><ele>34.26</ele><time>2015-12-04T10:54:58Z</time></trkpt><trkpt lat="59.7565028910" lon="28.7847955897"><ele>34.26</ele><time>2015-12-04T10:55:02Z</time></trkpt><trkpt lat="59.7564375121" lon="28.7847590446"><ele>34.74</ele><time>2015-12-04T10:55:14Z</time></trkpt><trkpt lat="59.7563988715" lon="28.7847028859"><ele>34.74</ele><time>2015-12-04T10:55:25Z</time></trkpt><trkpt lat="59.7563290503" lon="28.7847007066"><ele>34.74</ele><time>2015-12-04T10:55:39Z</time></trkpt><trkpt lat="59.7561946046" lon="28.7847000360"><ele>35.23</ele><time>2015-12-04T10:55:58Z</time></trkpt><trkpt lat="59.7561446484" lon="28.7846350763"><ele>34.74</ele><time>2015-12-04T10:56:08Z</time></trkpt><trkpt lat="59.7560715582" lon="28.7845805101"><ele>34.74</ele><time>2015-12-04T10:56:20Z</time></trkpt><trkpt lat="59.7560450714" lon="28.7844180688"><ele>34.74</ele><time>2015-12-04T10:56:33Z</time></trkpt><trkpt lat="59.7559933551" lon="28.7843210902"><ele>34.26</ele><time>2015-12-04T10:56:44Z</time></trkpt><trkpt lat="59.7559744120" lon="28.7842749059"><ele>34.74</ele><time>2015-12-04T10:56:49Z</time></trkpt><trkpt lat="59.7559010703" lon="28.7841559667"><ele>34.26</ele><time>2015-12-04T10:57:01Z</time></trkpt><trkpt lat="59.7558932751" lon="28.7839393783"><ele>34.74</ele><time>2015-12-04T10:57:16Z</time></trkpt><trkpt lat="59.7558804508" lon="28.7839361094"><ele>34.26</ele><time>2015-12-04T10:57:31Z</time></trkpt><trkpt lat="59.7558585741" lon="28.7839029171"><ele>34.26</ele><time>2015-12-04T10:57:46Z</time></trkpt><trkpt lat="59.7558721527" lon="28.7838271447"><ele>34.74</ele><time>2015-12-04T10:57:59Z</time></trkpt><trkpt lat="59.7559683770" lon="28.7838183437"><ele>34.26</ele><time>2015-12-04T10:58:15Z</time></trkpt><trkpt lat="59.7559319995" lon="28.7836547289"><ele>34.26</ele><time>2015-12-04T10:58:28Z</time></trkpt><trkpt lat="59.7559123021" lon="28.7835956365"><ele>34.74</ele><time>2015-12-04T10:58:45Z</time></trkpt><trkpt lat="59.7558578197" lon="28.7835213728"><ele>34.74</ele><time>2015-12-04T10:58:57Z</time></trkpt><trkpt lat="59.7557995655" lon="28.7835018430"><ele>34.26</ele><time>2015-12-04T10:59:09Z</time></trkpt><trkpt lat="59.7557700612" lon="28.7833975721"><ele>34.26</ele><time>2015-12-04T10:59:22Z</time></trkpt><trkpt lat="59.7557333484" lon="28.7832490448"><ele>34.74</ele><time>2015-12-04T10:59:35Z</time></trkpt><trkpt lat="59.7557123937" lon="28.7831666507"><ele>34.74</ele><time>2015-12-04T10:59:47Z</time></trkpt><trkpt lat="59.7557011619" lon="28.7830596138"><ele>34.74</ele><time>2015-12-04T10:59:55Z</time></trkpt><trkpt lat="59.7556657903" lon="28.7829228211"><ele>35.23</ele><time>2015-12-04T11:00:06Z</time></trkpt><trkpt lat="59.7556695621" lon="28.7828690093"><ele>34.74</ele><time>2015-12-04T11:00:09Z</time></trkpt><trkpt lat="59.7556346096" lon="28.7826335616"><ele>34.26</ele><time>2015-12-04T11:00:23Z</time></trkpt><trkpt lat="59.7556404769" lon="28.7826406024"><ele>34.26</ele><time>2015-12-04T11:00:39Z</time></trkpt><trkpt lat="59.7556175943" lon="28.7827592064"><ele>35.23</ele><time>2015-12-04T11:00:57Z</time></trkpt><trkpt lat="59.7555916104" lon="28.7827645708"><ele>34.74</ele><time>2015-12-04T11:01:20Z</time></trkpt><trkpt lat="59.7555477731" lon="28.7827887107"><ele>34.74</ele><time>2015-12-04T11:01:43Z</time></trkpt><trkpt lat="59.7554581705" lon="28.7827915605"><ele>35.23</ele><time>2015-12-04T11:01:55Z</time></trkpt><trkpt lat="59.7554670554" lon="28.7827810831"><ele>34.74</ele><time>2015-12-04T11:02:06Z</time></trkpt><trkpt lat="59.7553983238" lon="28.7828276027"><ele>34.26</ele><time>2015-12-04T11:02:15Z</time></trkpt><trkpt lat="59.7553555761" lon="28.7828827556"><ele>34.74</ele><time>2015-12-04T11:02:22Z</time></trkpt><trkpt lat="59.7553005069" lon="28.7829669937"><ele>34.74</ele><time>2015-12-04T11:02:32Z</time></trkpt><trkpt lat="59.7552377265" lon="28.7830451131"><ele>34.26</ele><time>2015-12-04T11:02:44Z</time></trkpt><trkpt lat="59.7552016843" lon="28.7830322888"><ele>34.74</ele><time>2015-12-04T11:02:53Z</time></trkpt><trkpt lat="59.7551857587" lon="28.7829690892"><ele>34.26</ele><time>2015-12-04T11:03:18Z</time></trkpt><trkpt lat="59.7551597748" lon="28.7829995155"><ele>34.74</ele><time>2015-12-04T11:03:39Z</time></trkpt><trkpt lat="59.7551523149" lon="28.7829953246"><ele>34.74</ele><time>2015-12-04T11:03:50Z</time></trkpt><trkpt lat="59.7551562544" lon="28.7831232324"><ele>34.26</ele><time>2015-12-04T11:04:02Z</time></trkpt><trkpt lat="59.7551295999" lon="28.7831063010"><ele>34.26</ele><time>2015-12-04T11:04:23Z</time></trkpt><trkpt lat="59.7551065497" lon="28.7830455322"><ele>34.26</ele><time>2015-12-04T11:04:34Z</time></trkpt><trkpt lat="59.7551343776" lon="28.7830673251"><ele>34.26</ele><time>2015-12-04T11:04:54Z</time></trkpt><trkpt lat="59.7550871875" lon="28.7829642277"><ele>34.26</ele><time>2015-12-04T11:05:08Z</time></trkpt><trkpt lat="59.7551076394" lon="28.7829206418"><ele>34.26</ele><time>2015-12-04T11:05:20Z</time></trkpt><trkpt lat="59.7550925519" lon="28.7828671653"><ele>35.23</ele><time>2015-12-04T11:05:32Z</time></trkpt><trkpt lat="59.7550954856" lon="28.7828550953"><ele>34.74</ele><time>2015-12-04T11:05:35Z</time></trkpt><trkpt lat="59.7550536599" lon="28.7828042172"><ele>34.74</ele><time>2015-12-04T11:05:40Z</time></trkpt><trkpt lat="59.7550448589" lon="28.7826685142"><ele>34.74</ele><time>2015-12-04T11:05:52Z</time></trkpt><trkpt lat="59.7550482955" lon="28.7825497426"><ele>35.23</ele><time>2015-12-04T11:06:02Z</time></trkpt><trkpt lat="59.7550272569" lon="28.7825154606"><ele>34.26</ele><time>2015-12-04T11:06:11Z</time></trkpt><trkpt lat="59.7549912147" lon="28.7825801689"><ele>34.74</ele><time>2015-12-04T11:06:21Z</time></trkpt><trkpt lat="59.7549358942" lon="28.7825722899"><ele>34.74</ele><time>2015-12-04T11:06:34Z</time></trkpt><trkpt lat="59.7549303621" lon="28.7825620640"><ele>34.26</ele><time>2015-12-04T11:06:35Z</time></trkpt><trkpt lat="59.7549079824" lon="28.7825076655"><ele>34.74</ele><time>2015-12-04T11:06:38Z</time></trkpt><trkpt lat="59.7548940685" lon="28.7823857088"><ele>34.74</ele><time>2015-12-04T11:06:49Z</time></trkpt><trkpt lat="59.7548822500" lon="28.7823478226"><ele>34.26</ele><time>2015-12-04T11:07:02Z</time></trkpt><trkpt lat="59.7548493091" lon="28.7822621595"><ele>34.26</ele><time>2015-12-04T11:07:11Z</time></trkpt><trkpt lat="59.7547825053" lon="28.7820853852"><ele>34.26</ele><time>2015-12-04T11:07:23Z</time></trkpt><trkpt lat="59.7547669988" lon="28.7820687052"><ele>34.26</ele><time>2015-12-04T11:07:25Z</time></trkpt><trkpt lat="59.7547190543" lon="28.7819013186"><ele>34.74</ele><time>2015-12-04T11:07:37Z</time></trkpt><trkpt lat="59.7546902206" lon="28.7819218542"><ele>34.26</ele><time>2015-12-04T11:07:42Z</time></trkpt><trkpt lat="59.7546442039" lon="28.7817877438"><ele>33.78</ele><time>2015-12-04T11:07:53Z</time></trkpt><trkpt lat="59.7546201479" lon="28.7816912681"><ele>33.78</ele><time>2015-12-04T11:08:05Z</time></trkpt><trkpt lat="59.7545878775" lon="28.7816259731"><ele>33.30</ele><time>2015-12-04T11:08:20Z</time></trkpt><trkpt lat="59.7545652464" lon="28.7815807946"><ele>33.78</ele><time>2015-12-04T11:08:40Z</time></trkpt><trkpt lat="59.7545391787" lon="28.7815549783"><ele>33.30</ele><time>2015-12-04T11:08:45Z</time></trkpt><trkpt lat="59.7545012925" lon="28.7815043516"><ele>33.30</ele><time>2015-12-04T11:08:55Z</time></trkpt><trkpt lat="59.7544854507" lon="28.7815094646"><ele>33.30</ele><time>2015-12-04T11:08:57Z</time></trkpt><trkpt lat="59.7544645797" lon="28.7814137433"><ele>33.30</ele><time>2015-12-04T11:09:06Z</time></trkpt><trkpt lat="59.7544368356" lon="28.7813611049"><ele>33.30</ele><time>2015-12-04T11:09:16Z</time></trkpt><trkpt lat="59.7543845326" lon="28.7812242284"><ele>33.30</ele><time>2015-12-04T11:09:27Z</time></trkpt><trkpt lat="59.7542938404" lon="28.7811720092"><ele>32.82</ele><time>2015-12-04T11:09:39Z</time></trkpt><trkpt lat="59.7542355862" lon="28.7811088096"><ele>33.78</ele><time>2015-12-04T11:09:51Z</time></trkpt><trkpt lat="59.7542148829" lon="28.7811231427"><ele>33.30</ele><time>2015-12-04T11:10:09Z</time></trkpt><trkpt lat="59.7541517671" lon="28.7811124977"><ele>33.30</ele><time>2015-12-04T11:10:34Z</time></trkpt><trkpt lat="59.7541301418" lon="28.7810353003"><ele>34.26</ele><time>2015-12-04T11:10:48Z</time></trkpt><trkpt lat="59.7541289683" lon="28.7809200492"><ele>34.26</ele><time>2015-12-04T11:11:02Z</time></trkpt><trkpt lat="59.7540642601" lon="28.7807002757"><ele>34.26</ele><time>2015-12-04T11:11:19Z</time></trkpt><trkpt lat="59.7539873980" lon="28.7806968391"><ele>34.26</ele><time>2015-12-04T11:11:31Z</time></trkpt><trkpt lat="59.7539282218" lon="28.7806626409"><ele>34.26</ele><time>2015-12-04T11:11:43Z</time></trkpt><trkpt lat="59.7538776789" lon="28.7805964239"><ele>33.78</ele><time>2015-12-04T11:11:55Z</time></trkpt><trkpt lat="59.7538136411" lon="28.7804448791"><ele>33.78</ele><time>2015-12-04T11:12:07Z</time></trkpt><trkpt lat="59.7537876572" lon="28.7804055680"><ele>34.26</ele><time>2015-12-04T11:12:12Z</time></trkpt><trkpt lat="59.7537313309" lon="28.7803624012"><ele>34.26</ele><time>2015-12-04T11:12:26Z</time></trkpt><trkpt lat="59.7536819614" lon="28.7802510057"><ele>34.74</ele><time>2015-12-04T11:12:42Z</time></trkpt><trkpt lat="59.7536292393" lon="28.7801774964"><ele>35.23</ele><time>2015-12-04T11:12:52Z</time></trkpt><trkpt lat="59.7535958793" lon="28.7799432222"><ele>35.23</ele><time>2015-12-04T11:13:05Z</time></trkpt><trkpt lat="59.7535103839" lon="28.7797397934"><ele>35.23</ele><time>2015-12-04T11:13:19Z</time></trkpt><trkpt lat="59.7534550633" lon="28.7796823774"><ele>35.23</ele><time>2015-12-04T11:13:29Z</time></trkpt><trkpt lat="59.7533730045" lon="28.7796920165"><ele>35.23</ele><time>2015-12-04T11:13:41Z</time></trkpt><trkpt lat="59.7533392254" lon="28.7797333393"><ele>34.74</ele><time>2015-12-04T11:13:52Z</time></trkpt><trkpt lat="59.7533143312" lon="28.7796383724"><ele>35.71</ele><time>2015-12-04T11:14:03Z</time></trkpt><trkpt lat="59.7532885149" lon="28.7795228697"><ele>36.19</ele><time>2015-12-04T11:14:13Z</time></trkpt><trkpt lat="59.7532837372" lon="28.7794121448"><ele>36.19</ele><time>2015-12-04T11:14:23Z</time></trkpt><trkpt lat="59.7532206215" lon="28.7792338617"><ele>37.63</ele><time>2015-12-04T11:14:38Z</time></trkpt><trkpt lat="59.7532343678" lon="28.7792708259"><ele>37.63</ele><time>2015-12-04T11:14:59Z</time></trkpt><trkpt lat="59.7532271594" lon="28.7792920321"><ele>37.63</ele><time>2015-12-04T11:15:28Z</time></trkpt><trkpt lat="59.7531943023" lon="28.7791799661"><ele>37.15</ele><time>2015-12-04T11:15:42Z</time></trkpt><trkpt lat="59.7532175202" lon="28.7791415770"><ele>37.63</ele><time>2015-12-04T11:16:00Z</time></trkpt><trkpt lat="59.7532405704" lon="28.7792038545"><ele>37.63</ele><time>2015-12-04T11:16:21Z</time></trkpt><trkpt lat="59.7532989085" lon="28.7789993361"><ele>37.63</ele><time>2015-12-04T11:16:37Z</time></trkpt><trkpt lat="59.7532824799" lon="28.7787703425"><ele>37.15</ele><time>2015-12-04T11:16:49Z</time></trkpt><trkpt lat="59.7532943822" lon="28.7787414249"><ele>36.67</ele><time>2015-12-04T11:16:52Z</time></trkpt><trkpt lat="59.7533257306" lon="28.7786224019"><ele>36.67</ele><time>2015-12-04T11:17:00Z</time></trkpt><trkpt lat="59.7533478588" lon="28.7785604596"><ele>36.67</ele><time>2015-12-04T11:17:06Z</time></trkpt><trkpt lat="59.7533531394" lon="28.7784339767"><ele>36.19</ele><time>2015-12-04T11:17:17Z</time></trkpt><trkpt lat="59.7533059493" lon="28.7783255149"><ele>36.19</ele><time>2015-12-04T11:17:31Z</time></trkpt><trkpt lat="59.7532403190" lon="28.7782509997"><ele>36.67</ele><time>2015-12-04T11:17:42Z</time></trkpt><trkpt lat="59.7532138322" lon="28.7781939190"><ele>37.15</ele><time>2015-12-04T11:17:46Z</time></trkpt><trkpt lat="59.7531365510" lon="28.7781382632"><ele>37.15</ele><time>2015-12-04T11:17:56Z</time></trkpt><trkpt lat="59.7530623712" lon="28.7781287078"><ele>38.11</ele><time>2015-12-04T11:18:05Z</time></trkpt><trkpt lat="59.7530240659" lon="28.7779956032"><ele>38.59</ele><time>2015-12-04T11:18:16Z</time></trkpt><trkpt lat="59.7529714275" lon="28.7778595649"><ele>39.07</ele><time>2015-12-04T11:18:27Z</time></trkpt><trkpt lat="59.7529924661" lon="28.7779378518"><ele>39.07</ele><time>2015-12-04T11:18:39Z</time></trkpt><trkpt lat="59.7530096490" lon="28.7779091019"><ele>38.11</ele><time>2015-12-04T11:18:46Z</time></trkpt><trkpt lat="59.7530070506" lon="28.7778481655"><ele>38.11</ele><time>2015-12-04T11:19:19Z</time></trkpt><trkpt lat="59.7529862635" lon="28.7778148893"><ele>37.63</ele><time>2015-12-04T11:19:53Z</time></trkpt><trkpt lat="59.7529855091" lon="28.7778722215"><ele>38.11</ele><time>2015-12-04T11:20:25Z</time></trkpt><trkpt lat="59.7529798932" lon="28.7778857164"><ele>38.59</ele><time>2015-12-04T11:20:36Z</time></trkpt><trkpt lat="59.7530155163" lon="28.7778492551"><ele>39.07</ele><time>2015-12-04T11:20:44Z</time></trkpt><trkpt lat="59.7529312782" lon="28.7777920067"><ele>39.07</ele><time>2015-12-04T11:20:48Z</time></trkpt><trkpt lat="59.7528448608" lon="28.7778012268"><ele>39.07</ele><time>2015-12-04T11:20:59Z</time></trkpt><trkpt lat="59.7528058011" lon="28.7777400389"><ele>38.59</ele><time>2015-12-04T11:21:10Z</time></trkpt><trkpt lat="59.7527979221" lon="28.7776879873"><ele>38.59</ele><time>2015-12-04T11:21:34Z</time></trkpt><trkpt lat="59.7527399193" lon="28.7777563836"><ele>38.59</ele><time>2015-12-04T11:21:51Z</time></trkpt><trkpt lat="59.7526594531" lon="28.7777053379"><ele>40.03</ele><time>2015-12-04T11:22:05Z</time></trkpt><trkpt lat="59.7526260931" lon="28.7775991391"><ele>39.07</ele><time>2015-12-04T11:22:13Z</time></trkpt><trkpt lat="59.7525421903" lon="28.7774422299"><ele>39.55</ele><time>2015-12-04T11:22:25Z</time></trkpt><trkpt lat="59.7525168769" lon="28.7773868255"><ele>40.03</ele><time>2015-12-04T11:22:35Z</time></trkpt><trkpt lat="59.7524927370" lon="28.7773259729"><ele>39.55</ele><time>2015-12-04T11:22:40Z</time></trkpt><trkpt lat="59.7524595447" lon="28.7773058563"><ele>39.55</ele><time>2015-12-04T11:22:46Z</time></trkpt><trkpt lat="59.7524437867" lon="28.7772014178"><ele>39.55</ele><time>2015-12-04T11:22:59Z</time></trkpt><trkpt lat="59.7524500731" lon="28.7772065308"><ele>39.55</ele><time>2015-12-04T11:23:20Z</time></trkpt><trkpt lat="59.7524478938" lon="28.7771970592"><ele>40.03</ele><time>2015-12-04T11:23:35Z</time></trkpt><trkpt lat="59.7524410207" lon="28.7771625258"><ele>40.03</ele><time>2015-12-04T11:23:59Z</time></trkpt><trkpt lat="59.7524504922" lon="28.7771469355"><ele>40.03</ele><time>2015-12-04T11:24:10Z</time></trkpt><trkpt lat="59.7524798289" lon="28.7770888489"><ele>40.51</ele><time>2015-12-04T11:24:24Z</time></trkpt><trkpt lat="59.7524760570" lon="28.7770423293"><ele>40.03</ele><time>2015-12-04T11:24:29Z</time></trkpt><trkpt lat="59.7524649091" lon="28.7768870965"><ele>39.07</ele><time>2015-12-04T11:24:37Z</time></trkpt><trkpt lat="59.7524995264" lon="28.7766286824"><ele>39.07</ele><time>2015-12-04T11:24:49Z</time></trkpt><trkpt lat="59.7524653282" lon="28.7766156066"><ele>38.59</ele><time>2015-12-04T11:24:58Z</time></trkpt><trkpt lat="59.7524126898" lon="28.7765941489"><ele>39.07</ele><time>2015-12-04T11:25:04Z</time></trkpt><trkpt lat="59.7523716185" lon="28.7765540835"><ele>38.59</ele><time>2015-12-04T11:25:08Z</time></trkpt><trkpt lat="59.7523228358" lon="28.7766188756"><ele>39.07</ele><time>2015-12-04T11:25:16Z</time></trkpt><trkpt lat="59.7521472350" lon="28.7765679974"><ele>39.07</ele><time>2015-12-04T11:25:29Z</time></trkpt><trkpt lat="59.7520396952" lon="28.7765379902"><ele>39.07</ele><time>2015-12-04T11:25:41Z</time></trkpt><trkpt lat="59.7520399466" lon="28.7764763832"><ele>39.55</ele><time>2015-12-04T11:26:02Z</time></trkpt><trkpt lat="59.7520584706" lon="28.7764203083"><ele>39.55</ele><time>2015-12-04T11:26:24Z</time></trkpt><trkpt lat="59.7520265356" lon="28.7764896266"><ele>39.55</ele><time>2015-12-04T11:26:45Z</time></trkpt><trkpt lat="59.7520317324" lon="28.7764488067"><ele>40.03</ele><time>2015-12-04T11:27:06Z</time></trkpt><trkpt lat="59.7520874720" lon="28.7762537599"><ele>39.55</ele><time>2015-12-04T11:27:17Z</time></trkpt><trkpt lat="59.7521338239" lon="28.7760412786"><ele>39.55</ele><time>2015-12-04T11:27:33Z</time></trkpt><trkpt lat="59.7521618195" lon="28.7760095112"><ele>39.55</ele><time>2015-12-04T11:27:55Z</time></trkpt><trkpt lat="59.7522386815" lon="28.7758968584"><ele>39.55</ele><time>2015-12-04T11:28:08Z</time></trkpt><trkpt lat="59.7522810102" lon="28.7758301385"><ele>39.07</ele><time>2015-12-04T11:28:19Z</time></trkpt><trkpt lat="59.7523121908" lon="28.7757568806"><ele>38.11</ele><time>2015-12-04T11:28:28Z</time></trkpt><trkpt lat="59.7523913160" lon="28.7757424638"><ele>37.63</ele><time>2015-12-04T11:28:40Z</time></trkpt><trkpt lat="59.7523981053" lon="28.7755897455"><ele>37.15</ele><time>2015-12-04T11:28:56Z</time></trkpt><trkpt lat="59.7523982730" lon="28.7755309045"><ele>37.63</ele><time>2015-12-04T11:29:11Z</time></trkpt><trkpt lat="59.7523681819" lon="28.7754137255"><ele>37.15</ele><time>2015-12-04T11:29:27Z</time></trkpt><trkpt lat="59.7523517534" lon="28.7752872426"><ele>37.63</ele><time>2015-12-04T11:29:38Z</time></trkpt><trkpt lat="59.7523542680" lon="28.7752365321"><ele>37.63</ele><time>2015-12-04T11:29:50Z</time></trkpt><trkpt lat="59.7523913998" lon="28.7751484383"><ele>37.63</ele><time>2015-12-04T11:30:02Z</time></trkpt><trkpt lat="59.7524194792" lon="28.7750146631"><ele>37.63</ele><time>2015-12-04T11:30:13Z</time></trkpt><trkpt lat="59.7524806671" lon="28.7748750206"><ele>37.15</ele><time>2015-12-04T11:30:25Z</time></trkpt><trkpt lat="59.7524738777" lon="28.7748426665"><ele>37.15</ele><time>2015-12-04T11:30:27Z</time></trkpt><trkpt lat="59.7524767276" lon="28.7748083845"><ele>37.15</ele><time>2015-12-04T11:30:29Z</time></trkpt><trkpt lat="59.7524820082" lon="28.7746725138"><ele>36.67</ele><time>2015-12-04T11:30:40Z</time></trkpt><trkpt lat="59.7524566110" lon="28.7746292632"><ele>36.67</ele><time>2015-12-04T11:30:52Z</time></trkpt><trkpt lat="59.7524912283" lon="28.7745355535"><ele>36.67</ele><time>2015-12-04T11:31:02Z</time></trkpt><trkpt lat="59.7525795735" lon="28.7745902035"><ele>36.67</ele><time>2015-12-04T11:31:14Z</time></trkpt><trkpt lat="59.7526192199" lon="28.7744788080"><ele>36.67</ele><time>2015-12-04T11:31:25Z</time></trkpt><trkpt lat="59.7526689246" lon="28.7744713482"><ele>36.67</ele><time>2015-12-04T11:31:34Z</time></trkpt><trkpt lat="59.7527268436" lon="28.7744389102"><ele>36.67</ele><time>2015-12-04T11:31:45Z</time></trkpt><trkpt lat="59.7527446970" lon="28.7743335497"><ele>36.67</ele><time>2015-12-04T11:32:13Z</time></trkpt><trkpt lat="59.7527575213" lon="28.7742830068"><ele>36.67</ele><time>2015-12-04T11:32:33Z</time></trkpt><trkpt lat="59.7528189607" lon="28.7742053904"><ele>37.15</ele><time>2015-12-04T11:32:47Z</time></trkpt><trkpt lat="59.7528310306" lon="28.7742561009"><ele>37.15</ele><time>2015-12-04T11:33:04Z</time></trkpt><trkpt lat="59.7528576851" lon="28.7742654048"><ele>37.15</ele><time>2015-12-04T11:33:30Z</time></trkpt><trkpt lat="59.7528879438" lon="28.7742069829"><ele>36.67</ele><time>2015-12-04T11:33:50Z</time></trkpt><trkpt lat="59.7528930567" lon="28.7742171250"><ele>37.15</ele><time>2015-12-04T11:34:11Z</time></trkpt><trkpt lat="59.7528736107" lon="28.7741535902"><ele>37.15</ele><time>2015-12-04T11:34:40Z</time></trkpt><trkpt lat="59.7528929729" lon="28.7741263490"><ele>37.15</ele><time>2015-12-04T11:35:04Z</time></trkpt><trkpt lat="59.7528996784" lon="28.7741144467"><ele>37.15</ele><time>2015-12-04T11:35:05Z</time></trkpt><trkpt lat="59.7529660631" lon="28.7740141153"><ele>37.15</ele><time>2015-12-04T11:35:19Z</time></trkpt><trkpt lat="59.7529444378" lon="28.7738529313"><ele>37.15</ele><time>2015-12-04T11:35:31Z</time></trkpt><trkpt lat="59.7529127542" lon="28.7738177273"><ele>37.63</ele><time>2015-12-04T11:35:43Z</time></trkpt><trkpt lat="59.7529171128" lon="28.7737777457"><ele>37.63</ele><time>2015-12-04T11:36:09Z</time></trkpt><trkpt lat="59.7528514825" lon="28.7737555336"><ele>37.15</ele><time>2015-12-04T11:36:36Z</time></trkpt><trkpt lat="59.7528595291" lon="28.7738132849"><ele>37.15</ele><time>2015-12-04T11:36:49Z</time></trkpt><trkpt lat="59.7528715152" lon="28.7737664301"><ele>36.67</ele><time>2015-12-04T11:36:59Z</time></trkpt><trkpt lat="59.7528474592" lon="28.7737398595"><ele>37.15</ele><time>2015-12-04T11:37:08Z</time></trkpt><trkpt lat="59.7528160270" lon="28.7735696230"><ele>38.11</ele><time>2015-12-04T11:37:19Z</time></trkpt><trkpt lat="59.7528451961" lon="28.7735290546"><ele>38.11</ele><time>2015-12-04T11:37:31Z</time></trkpt><trkpt lat="59.7528191283" lon="28.7734269630"><ele>38.11</ele><time>2015-12-04T11:37:42Z</time></trkpt><trkpt lat="59.7528001014" lon="28.7733778451"><ele>39.07</ele><time>2015-12-04T11:38:07Z</time></trkpt><trkpt lat="59.7528805677" lon="28.7733091135"><ele>38.11</ele><time>2015-12-04T11:38:19Z</time></trkpt><trkpt lat="59.7529715952" lon="28.7733689602"><ele>37.63</ele><time>2015-12-04T11:38:31Z</time></trkpt><trkpt lat="59.7530058771" lon="28.7735578045"><ele>37.63</ele><time>2015-12-04T11:38:44Z</time></trkpt><trkpt lat="59.7530193720" lon="28.7734778412"><ele>37.63</ele><time>2015-12-04T11:39:08Z</time></trkpt><trkpt lat="59.7530343756" lon="28.7736034859"><ele>38.11</ele><time>2015-12-04T11:39:20Z</time></trkpt><trkpt lat="59.7530659754" lon="28.7735452317"><ele>38.11</ele><time>2015-12-04T11:39:47Z</time></trkpt><trkpt lat="59.7531182785" lon="28.7736391090"><ele>38.11</ele><time>2015-12-04T11:39:59Z</time></trkpt><trkpt lat="59.7531368025" lon="28.7736479100"><ele>38.11</ele><time>2015-12-04T11:40:02Z</time></trkpt><trkpt lat="59.7531634569" lon="28.7735840399"><ele>38.11</ele><time>2015-12-04T11:40:11Z</time></trkpt><trkpt lat="59.7532117367" lon="28.7736692838"><ele>38.11</ele><time>2015-12-04T11:40:23Z</time></trkpt><trkpt lat="59.7533216234" lon="28.7736826111"><ele>38.11</ele><time>2015-12-04T11:40:38Z</time></trkpt><trkpt lat="59.7533452604" lon="28.7737104390"><ele>38.11</ele><time>2015-12-04T11:40:46Z</time></trkpt><trkpt lat="59.7533815540" lon="28.7737483252"><ele>38.11</ele><time>2015-12-04T11:40:54Z</time></trkpt><trkpt lat="59.7534368746" lon="28.7737723812"><ele>38.11</ele><time>2015-12-04T11:41:05Z</time></trkpt><trkpt lat="59.7535055224" lon="28.7737588864"><ele>38.11</ele><time>2015-12-04T11:41:19Z</time></trkpt><trkpt lat="59.7535281535" lon="28.7737367582"><ele>38.59</ele><time>2015-12-04T11:41:44Z</time></trkpt><trkpt lat="59.7535439953" lon="28.7737226766"><ele>38.59</ele><time>2015-12-04T11:41:57Z</time></trkpt><trkpt lat="59.7535527963" lon="28.7737202458"><ele>38.11</ele><time>2015-12-04T11:41:59Z</time></trkpt><trkpt lat="59.7536316700" lon="28.7735368498"><ele>38.11</ele><time>2015-12-04T11:42:12Z</time></trkpt><trkpt lat="59.7536452487" lon="28.7735112850"><ele>37.63</ele><time>2015-12-04T11:42:14Z</time></trkpt><trkpt lat="59.7536834702" lon="28.7735000532"><ele>37.63</ele><time>2015-12-04T11:42:18Z</time></trkpt><trkpt lat="59.7537625115" lon="28.7736303918"><ele>38.11</ele><time>2015-12-04T11:42:31Z</time></trkpt><trkpt lat="59.7537748329" lon="28.7736780010"><ele>38.11</ele><time>2015-12-04T11:42:35Z</time></trkpt><trkpt lat="59.7538703028" lon="28.7737257779"><ele>37.15</ele><time>2015-12-04T11:42:48Z</time></trkpt><trkpt lat="59.7539658565" lon="28.7736795098"><ele>37.15</ele><time>2015-12-04T11:43:03Z</time></trkpt><trkpt lat="59.7540261224" lon="28.7737309746"><ele>37.15</ele><time>2015-12-04T11:43:15Z</time></trkpt><trkpt lat="59.7541219275" lon="28.7737746444"><ele>37.15</ele><time>2015-12-04T11:43:28Z</time></trkpt><trkpt lat="59.7541299742" lon="28.7737950124"><ele>37.15</ele><time>2015-12-04T11:43:30Z</time></trkpt><trkpt lat="59.7541763261" lon="28.7739628181"><ele>37.63</ele><time>2015-12-04T11:43:44Z</time></trkpt><trkpt lat="59.7542782500" lon="28.7740272749"><ele>37.15</ele><time>2015-12-04T11:44:02Z</time></trkpt><trkpt lat="59.7543572076" lon="28.7741877045"><ele>37.63</ele><time>2015-12-04T11:44:16Z</time></trkpt><trkpt lat="59.7544330638" lon="28.7742694281"><ele>37.63</ele><time>2015-12-04T11:44:33Z</time></trkpt><trkpt lat="59.7544987779" lon="28.7743554264"><ele>37.63</ele><time>2015-12-04T11:44:47Z</time></trkpt><trkpt lat="59.7545726225" lon="28.7743984256"><ele>36.67</ele><time>2015-12-04T11:45:04Z</time></trkpt><trkpt lat="59.7545594629" lon="28.7744747847"><ele>37.15</ele><time>2015-12-04T11:45:11Z</time></trkpt><trkpt lat="59.7545736283" lon="28.7745777145"><ele>36.67</ele><time>2015-12-04T11:45:24Z</time></trkpt><trkpt lat="59.7546053119" lon="28.7746390700"><ele>37.15</ele><time>2015-12-04T11:45:36Z</time></trkpt><trkpt lat="59.7546544299" lon="28.7746201269"><ele>36.67</ele><time>2015-12-04T11:45:49Z</time></trkpt><trkpt lat="59.7546688467" lon="28.7747934647"><ele>36.67</ele><time>2015-12-04T11:46:02Z</time></trkpt><trkpt lat="59.7547151987" lon="28.7747771200"><ele>37.15</ele><time>2015-12-04T11:46:16Z</time></trkpt><trkpt lat="59.7547655739" lon="28.7747870944"><ele>37.15</ele><time>2015-12-04T11:46:28Z</time></trkpt><trkpt lat="59.7547942400" lon="28.7747928780"><ele>36.67</ele><time>2015-12-04T11:46:55Z</time></trkpt><trkpt lat="59.7548160329" lon="28.7747774553"><ele>36.67</ele><time>2015-12-04T11:47:22Z</time></trkpt><trkpt lat="59.7548591159" lon="28.7747941352"><ele>37.15</ele><time>2015-12-04T11:47:38Z</time></trkpt><trkpt lat="59.7550020274" lon="28.7748399843"><ele>37.15</ele><time>2015-12-04T11:47:51Z</time></trkpt><trkpt lat="59.7551372275" lon="28.7749321014"><ele>36.67</ele><time>2015-12-04T11:48:06Z</time></trkpt><trkpt lat="59.7552069649" lon="28.7749760225"><ele>37.15</ele><time>2015-12-04T11:48:19Z</time></trkpt><trkpt lat="59.7552501317" lon="28.7750118971"><ele>37.63</ele><time>2015-12-04T11:48:31Z</time></trkpt><trkpt lat="59.7553901933" lon="28.7750018388"><ele>36.67</ele><time>2015-12-04T11:48:44Z</time></trkpt><trkpt lat="59.7554433346" lon="28.7749293353"><ele>37.15</ele><time>2015-12-04T11:48:56Z</time></trkpt><trkpt lat="59.7555010021" lon="28.7749563251"><ele>36.67</ele><time>2015-12-04T11:49:10Z</time></trkpt><trkpt lat="59.7555592563" lon="28.7748672254"><ele>36.19</ele><time>2015-12-04T11:49:34Z</time></trkpt><trkpt lat="59.7556562349" lon="28.7748786248"><ele>35.71</ele><time>2015-12-04T11:49:47Z</time></trkpt><trkpt lat="59.7557645291" lon="28.7748725060"><ele>36.67</ele><time>2015-12-04T11:50:00Z</time></trkpt><trkpt lat="59.7559061833" lon="28.7748906948"><ele>36.67</ele><time>2015-12-04T11:50:15Z</time></trkpt><trkpt lat="59.7560344264" lon="28.7749517150"><ele>36.67</ele><time>2015-12-04T11:50:31Z</time></trkpt><trkpt lat="59.7561583947" lon="28.7749020942"><ele>36.67</ele><time>2015-12-04T11:50:47Z</time></trkpt><trkpt lat="59.7562360950" lon="28.7749232166"><ele>36.67</ele><time>2015-12-04T11:50:59Z</time></trkpt><trkpt lat="59.7563313972" lon="28.7748915330"><ele>37.63</ele><time>2015-12-04T11:51:11Z</time></trkpt><trkpt lat="59.7564199939" lon="28.7749631982"><ele>37.63</ele><time>2015-12-04T11:51:24Z</time></trkpt><trkpt lat="59.7564042360" lon="28.7750446703"><ele>37.63</ele><time>2015-12-04T11:51:36Z</time></trkpt><trkpt lat="59.7564503364" lon="28.7750561535"><ele>37.15</ele><time>2015-12-04T11:51:48Z</time></trkpt><trkpt lat="59.7565273661" lon="28.7751009967"><ele>36.67</ele><time>2015-12-04T11:51:59Z</time></trkpt><trkpt lat="59.7566653322" lon="28.7751077022"><ele>36.67</ele><time>2015-12-04T11:52:13Z</time></trkpt><trkpt lat="59.7568369936" lon="28.7751345243"><ele>36.19</ele><time>2015-12-04T11:52:28Z</time></trkpt><trkpt lat="59.7569352295" lon="28.7752341013"><ele>35.71</ele><time>2015-12-04T11:52:39Z</time></trkpt><trkpt lat="59.7569915559" lon="28.7752424832"><ele>36.67</ele><time>2015-12-04T11:52:57Z</time></trkpt><trkpt lat="59.7570789792" lon="28.7752240431"><ele>36.19</ele><time>2015-12-04T11:53:18Z</time></trkpt><trkpt lat="59.7570901271" lon="28.7751647830"><ele>36.19</ele><time>2015-12-04T11:53:43Z</time></trkpt><trkpt lat="59.7570937313" lon="28.7751810439"><ele>36.67</ele><time>2015-12-04T11:53:56Z</time></trkpt><trkpt lat="59.7571011912" lon="28.7751314230"><ele>36.67</ele><time>2015-12-04T11:54:11Z</time></trkpt><trkpt lat="59.7570887022" lon="28.7752400525"><ele>36.67</ele><time>2015-12-04T11:54:31Z</time></trkpt><trkpt lat="59.7571411729" lon="28.7755533680"><ele>35.71</ele><time>2015-12-04T11:54:46Z</time></trkpt><trkpt lat="59.7571741976" lon="28.7756639253"><ele>35.23</ele><time>2015-12-04T11:54:57Z</time></trkpt><trkpt lat="59.7571919672" lon="28.7759265304"><ele>35.23</ele><time>2015-12-04T11:55:11Z</time></trkpt><trkpt lat="59.7572675720" lon="28.7760179769"><ele>34.74</ele><time>2015-12-04T11:55:22Z</time></trkpt><trkpt lat="59.7573769558" lon="28.7760235090"><ele>34.26</ele><time>2015-12-04T11:55:43Z</time></trkpt><trkpt lat="59.7574664745" lon="28.7760497443"><ele>34.74</ele><time>2015-12-04T11:55:58Z</time></trkpt><trkpt lat="59.7574870102" lon="28.7760724593"><ele>34.26</ele><time>2015-12-04T11:56:12Z</time></trkpt><trkpt lat="59.7574696597" lon="28.7761699408"><ele>34.26</ele><time>2015-12-04T11:56:28Z</time></trkpt><trkpt lat="59.7574994154" lon="28.7762110960"><ele>34.26</ele><time>2015-12-04T11:56:41Z</time></trkpt><trkpt lat="59.7575513832" lon="28.7762307934"><ele>34.74</ele><time>2015-12-04T11:56:56Z</time></trkpt><trkpt lat="59.7576098051" lon="28.7763274368"><ele>34.26</ele><time>2015-12-04T11:57:17Z</time></trkpt><trkpt lat="59.7576856613" lon="28.7763434462"><ele>34.26</ele><time>2015-12-04T11:57:31Z</time></trkpt><trkpt lat="59.7578157485" lon="28.7763640657"><ele>34.74</ele><time>2015-12-04T11:57:43Z</time></trkpt><trkpt lat="59.7578609269" lon="28.7764757965"><ele>34.74</ele><time>2015-12-04T11:57:54Z</time></trkpt><trkpt lat="59.7579256352" lon="28.7764386646"><ele>35.23</ele><time>2015-12-04T11:58:11Z</time></trkpt><trkpt lat="59.7580044251" lon="28.7764835078"><ele>35.71</ele><time>2015-12-04T11:58:36Z</time></trkpt><trkpt lat="59.7579760943" lon="28.7763471343"><ele>35.71</ele><time>2015-12-04T11:59:06Z</time></trkpt><trkpt lat="59.7579886671" lon="28.7764209788"><ele>35.71</ele><time>2015-12-04T11:59:38Z</time></trkpt><trkpt lat="59.7579884157" lon="28.7764791492"><ele>35.71</ele><time>2015-12-04T12:00:00Z</time></trkpt><trkpt lat="59.7580191772" lon="28.7765326258"><ele>35.71</ele><time>2015-12-04T12:00:24Z</time></trkpt><trkpt lat="59.7581092827" lon="28.7765771337"><ele>35.71</ele><time>2015-12-04T12:00:39Z</time></trkpt><trkpt lat="59.7581549641" lon="28.7765732780"><ele>35.71</ele><time>2015-12-04T12:00:53Z</time></trkpt><trkpt lat="59.7582278028" lon="28.7767265830"><ele>35.71</ele><time>2015-12-04T12:01:07Z</time></trkpt><trkpt lat="59.7583065089" lon="28.7767599430"><ele>35.71</ele><time>2015-12-04T12:01:21Z</time></trkpt><trkpt lat="59.7583974525" lon="28.7767197937"><ele>35.23</ele><time>2015-12-04T12:01:34Z</time></trkpt><trkpt lat="59.7584588919" lon="28.7768730987"><ele>35.23</ele><time>2015-12-04T12:01:47Z</time></trkpt><trkpt lat="59.7585060820" lon="28.7770103943"><ele>36.19</ele><time>2015-12-04T12:02:02Z</time></trkpt><trkpt lat="59.7585062496" lon="28.7770650443"><ele>36.19</ele><time>2015-12-04T12:02:11Z</time></trkpt><trkpt lat="59.7585969418" lon="28.7770974822"><ele>35.23</ele><time>2015-12-04T12:02:22Z</time></trkpt><trkpt lat="59.7585893143" lon="28.7772849016"><ele>35.23</ele><time>2015-12-04T12:02:34Z</time></trkpt><trkpt lat="59.7585755680" lon="28.7773626857"><ele>35.23</ele><time>2015-12-04T12:02:41Z</time></trkpt><trkpt lat="59.7585594747" lon="28.7774811219"><ele>35.71</ele><time>2015-12-04T12:02:51Z</time></trkpt><trkpt lat="59.7585049924" lon="28.7775702216"><ele>36.19</ele><time>2015-12-04T12:03:02Z</time></trkpt><trkpt lat="59.7585050762" lon="28.7776440661"><ele>35.71</ele><time>2015-12-04T12:03:08Z</time></trkpt><trkpt lat="59.7585322335" lon="28.7777107861"><ele>35.71</ele><time>2015-12-04T12:03:20Z</time></trkpt><trkpt lat="59.7585487459" lon="28.7777677830"><ele>35.71</ele><time>2015-12-04T12:03:45Z</time></trkpt><trkpt lat="59.7586380970" lon="28.7778504286"><ele>34.74</ele><time>2015-12-04T12:03:58Z</time></trkpt><trkpt lat="59.7587049007" lon="28.7778399512"><ele>34.26</ele><time>2015-12-04T12:04:09Z</time></trkpt><trkpt lat="59.7587214969" lon="28.7778598163"><ele>34.74</ele><time>2015-12-04T12:04:24Z</time></trkpt><trkpt lat="59.7587691899" lon="28.7778858002"><ele>34.26</ele><time>2015-12-04T12:04:43Z</time></trkpt><trkpt lat="59.7587626521" lon="28.7777807750"><ele>34.74</ele><time>2015-12-04T12:04:59Z</time></trkpt><trkpt lat="59.7587774880" lon="28.7778014783"><ele>34.74</ele><time>2015-12-04T12:05:16Z</time></trkpt><trkpt lat="59.7588298749" lon="28.7778686173"><ele>34.74</ele><time>2015-12-04T12:05:34Z</time></trkpt><trkpt lat="59.7588489857" lon="28.7778821122"><ele>35.23</ele><time>2015-12-04T12:05:47Z</time></trkpt><trkpt lat="59.7588564456" lon="28.7778972834"><ele>34.74</ele><time>2015-12-04T12:06:11Z</time></trkpt><trkpt lat="59.7589202318" lon="28.7778957747"><ele>34.74</ele><time>2015-12-04T12:06:27Z</time></trkpt><trkpt lat="59.7589188069" lon="28.7779532745"><ele>34.74</ele><time>2015-12-04T12:06:39Z</time></trkpt><trkpt lat="59.7589157056" lon="28.7779707089"><ele>34.74</ele><time>2015-12-04T12:06:59Z</time></trkpt><trkpt lat="59.7589468863" lon="28.7779420428"><ele>34.74</ele><time>2015-12-04T12:07:21Z</time></trkpt><trkpt lat="59.7589664161" lon="28.7779476587"><ele>34.26</ele><time>2015-12-04T12:07:46Z</time></trkpt><trkpt lat="59.7589802463" lon="28.7779762410"><ele>34.74</ele><time>2015-12-04T12:08:17Z</time></trkpt><trkpt lat="59.7590103373" lon="28.7779428810"><ele>34.74</ele><time>2015-12-04T12:08:46Z</time></trkpt><trkpt lat="59.7590031289" lon="28.7779159751"><ele>34.74</ele><time>2015-12-04T12:09:16Z</time></trkpt><trkpt lat="59.7589597944" lon="28.7779832818"><ele>35.23</ele><time>2015-12-04T12:09:37Z</time></trkpt><trkpt lat="59.7589960881" lon="28.7779906578"><ele>34.74</ele><time>2015-12-04T12:10:08Z</time></trkpt><trkpt lat="59.7590088286" lon="28.7780508399"><ele>34.26</ele><time>2015-12-04T12:10:39Z</time></trkpt><trkpt lat="59.7590207309" lon="28.7780287117"><ele>35.71</ele><time>2015-12-04T12:11:08Z</time></trkpt><trkpt lat="59.7590025421" lon="28.7780197430"><ele>35.23</ele><time>2015-12-04T12:11:30Z</time></trkpt><trkpt lat="59.7590175457" lon="28.7779417913"><ele>34.74</ele><time>2015-12-04T12:11:55Z</time></trkpt><trkpt lat="59.7589868680" lon="28.7780382670"><ele>35.71</ele><time>2015-12-04T12:12:16Z</time></trkpt><trkpt lat="59.7589794081" lon="28.7779696193"><ele>35.71</ele><time>2015-12-04T12:12:43Z</time></trkpt><trkpt lat="59.7589755524" lon="28.7779631652"><ele>35.23</ele><time>2015-12-04T12:13:06Z</time></trkpt><trkpt lat="59.7589354031" lon="28.7780146301"><ele>35.23</ele><time>2015-12-04T12:13:39Z</time></trkpt><trkpt lat="59.7589651588" lon="28.7780028954"><ele>35.23</ele><time>2015-12-04T12:13:58Z</time></trkpt><trkpt lat="59.7589752171" lon="28.7780173123"><ele>35.23</ele><time>2015-12-04T12:14:20Z</time></trkpt><trkpt lat="59.7589903045" lon="28.7779853772"><ele>35.23</ele><time>2015-12-04T12:14:51Z</time></trkpt><trkpt lat="59.7589730378" lon="28.7780322321"><ele>35.23</ele><time>2015-12-04T12:15:24Z</time></trkpt><trkpt lat="59.7589397617" lon="28.7780200783"><ele>35.23</ele><time>2015-12-04T12:15:44Z</time></trkpt><trkpt lat="59.7589559387" lon="28.7780544441"><ele>35.71</ele><time>2015-12-04T12:16:54Z</time></trkpt><trkpt lat="59.7589702718" lon="28.7779457308"><ele>35.23</ele><time>2015-12-04T12:17:19Z</time></trkpt><trkpt lat="59.7589680087" lon="28.7779857963"><ele>36.19</ele><time>2015-12-04T12:17:58Z</time></trkpt><trkpt lat="59.7589938249" lon="28.7779753190"><ele>35.71</ele><time>2015-12-04T12:18:24Z</time></trkpt><trkpt lat="59.7589705233" lon="28.7779610697"><ele>35.71</ele><time>2015-12-04T12:18:48Z</time></trkpt><trkpt lat="59.7589478083" lon="28.7779239379"><ele>35.71</ele><time>2015-12-04T12:18:58Z</time></trkpt><trkpt lat="59.7588994447" lon="28.7778910808"><ele>35.71</ele><time>2015-12-04T12:19:15Z</time></trkpt><trkpt lat="59.7588924039" lon="28.7777999695"><ele>36.19</ele><time>2015-12-04T12:19:39Z</time></trkpt><trkpt lat="59.7588982712" lon="28.7777521089"><ele>36.19</ele><time>2015-12-04T12:19:52Z</time></trkpt><trkpt lat="59.7589105088" lon="28.7776460778"><ele>35.71</ele><time>2015-12-04T12:20:10Z</time></trkpt><trkpt lat="59.7588856146" lon="28.7775994744"><ele>35.71</ele><time>2015-12-04T12:20:30Z</time></trkpt><trkpt lat="59.7588982712" lon="28.7775635999"><ele>36.19</ele><time>2015-12-04T12:20:48Z</time></trkpt><trkpt lat="59.7589508258" lon="28.7775657792"><ele>36.19</ele><time>2015-12-04T12:21:12Z</time></trkpt><trkpt lat="59.7589895502" lon="28.7776431441"><ele>36.67</ele><time>2015-12-04T12:21:35Z</time></trkpt><trkpt lat="59.7590284422" lon="28.7776183337"><ele>36.19</ele><time>2015-12-04T12:22:08Z</time></trkpt><trkpt lat="59.7590372432" lon="28.7776369415"><ele>36.67</ele><time>2015-12-04T12:22:42Z</time></trkpt><trkpt lat="59.7590373270" lon="28.7777091935"><ele>37.63</ele><time>2015-12-04T12:23:10Z</time></trkpt><trkpt lat="59.7590361536" lon="28.7777088583"><ele>37.15</ele><time>2015-12-04T12:23:30Z</time></trkpt><trkpt lat="59.7590079904" lon="28.7776713073"><ele>37.15</ele><time>2015-12-04T12:23:52Z</time></trkpt><trkpt lat="59.7589612193" lon="28.7776113767"><ele>37.15</ele><time>2015-12-04T12:24:09Z</time></trkpt><trkpt lat="59.7589105926" lon="28.7775856443"><ele>36.67</ele><time>2015-12-04T12:24:27Z</time></trkpt><trkpt lat="59.7588999476" lon="28.7775037531"><ele>36.67</ele><time>2015-12-04T12:24:43Z</time></trkpt><trkpt lat="59.7588602174" lon="28.7774042599"><ele>36.67</ele><time>2015-12-04T12:24:56Z</time></trkpt><trkpt lat="59.7588440403" lon="28.7773284037"><ele>36.19</ele><time>2015-12-04T12:25:11Z</time></trkpt><trkpt lat="59.7588463034" lon="28.7773396354"><ele>36.67</ele><time>2015-12-04T12:25:33Z</time></trkpt><trkpt lat="59.7588745505" lon="28.7771969754"><ele>36.19</ele><time>2015-12-04T12:25:46Z</time></trkpt><trkpt lat="59.7588540986" lon="28.7771041039"><ele>35.71</ele><time>2015-12-04T12:26:00Z</time></trkpt><trkpt lat="59.7588520031" lon="28.7771045230"><ele>35.71</ele><time>2015-12-04T12:26:01Z</time></trkpt><trkpt lat="59.7588312160" lon="28.7770326901"><ele>35.71</ele><time>2015-12-04T12:26:08Z</time></trkpt><trkpt lat="59.7588089202" lon="28.7769621983"><ele>36.19</ele><time>2015-12-04T12:26:15Z</time></trkpt><trkpt lat="59.7587950062" lon="28.7768746074"><ele>35.71</ele><time>2015-12-04T12:26:24Z</time></trkpt><trkpt lat="59.7587758116" lon="28.7767819036"><ele>36.19</ele><time>2015-12-04T12:26:35Z</time></trkpt><trkpt lat="59.7587816790" lon="28.7765786424"><ele>37.15</ele><time>2015-12-04T12:26:52Z</time></trkpt><trkpt lat="59.7587448824" lon="28.7764828373"><ele>37.15</ele><time>2015-12-04T12:27:00Z</time></trkpt><trkpt lat="59.7587070800" lon="28.7764063943"><ele>36.19</ele><time>2015-12-04T12:27:11Z</time></trkpt><trkpt lat="59.7586945910" lon="28.7763697654"><ele>37.63</ele><time>2015-12-04T12:27:13Z</time></trkpt><trkpt lat="59.7586706188" lon="28.7763219886"><ele>36.19</ele><time>2015-12-04T12:27:15Z</time></trkpt><trkpt lat="59.7585725505" lon="28.7761193141"><ele>35.71</ele><time>2015-12-04T12:27:30Z</time></trkpt><trkpt lat="59.7585224267" lon="28.7759463117"><ele>35.71</ele><time>2015-12-04T12:27:45Z</time></trkpt><trkpt lat="59.7584965266" lon="28.7757127918"><ele>37.15</ele><time>2015-12-04T12:28:00Z</time></trkpt><trkpt lat="59.7584911622" lon="28.7755972892"><ele>37.15</ele><time>2015-12-04T12:28:24Z</time></trkpt><trkpt lat="59.7584423795" lon="28.7754091993"><ele>35.71</ele><time>2015-12-04T12:28:45Z</time></trkpt><trkpt lat="59.7584105283" lon="28.7751693930"><ele>40.03</ele><time>2015-12-04T12:29:02Z</time></trkpt><trkpt lat="59.7584090196" lon="28.7751470134"><ele>36.67</ele><time>2015-12-04T12:29:03Z</time></trkpt><trkpt lat="59.7582847159" lon="28.7748872582"><ele>36.19</ele><time>2015-12-04T12:29:24Z</time></trkpt><trkpt lat="59.7582568880" lon="28.7746229768"><ele>36.67</ele><time>2015-12-04T12:29:41Z</time></trkpt><trkpt lat="59.7583126277" lon="28.7743735313"><ele>36.67</ele><time>2015-12-04T12:29:58Z</time></trkpt><trkpt lat="59.7583699599" lon="28.7741504889"><ele>36.67</ele><time>2015-12-04T12:30:14Z</time></trkpt><trkpt lat="59.7584386077" lon="28.7739303801"><ele>37.63</ele><time>2015-12-04T12:30:29Z</time></trkpt><trkpt lat="59.7584469058" lon="28.7736381032"><ele>37.15</ele><time>2015-12-04T12:30:46Z</time></trkpt><trkpt lat="59.7584476601" lon="28.7734861393"><ele>36.67</ele><time>2015-12-04T12:31:11Z</time></trkpt><trkpt lat="59.7585133743" lon="28.7732846383"><ele>36.67</ele><time>2015-12-04T12:31:25Z</time></trkpt><trkpt lat="59.7585691977" lon="28.7731315009"><ele>36.19</ele><time>2015-12-04T12:31:37Z</time></trkpt><trkpt lat="59.7586271167" lon="28.7729416508"><ele>36.19</ele><time>2015-12-04T12:31:52Z</time></trkpt><trkpt lat="59.7587108519" lon="28.7728220411"><ele>36.19</ele><time>2015-12-04T12:32:07Z</time></trkpt><trkpt lat="59.7587793320" lon="28.7726691552"><ele>35.71</ele><time>2015-12-04T12:32:21Z</time></trkpt><trkpt lat="59.7588806693" lon="28.7724561710"><ele>35.23</ele><time>2015-12-04T12:32:38Z</time></trkpt><trkpt lat="59.7589546815" lon="28.7723413389"><ele>35.23</ele><time>2015-12-04T12:32:48Z</time></trkpt><trkpt lat="59.7589786537" lon="28.7720927317"><ele>34.74</ele><time>2015-12-04T12:33:03Z</time></trkpt><trkpt lat="59.7589716967" lon="28.7719014566"><ele>34.26</ele><time>2015-12-04T12:33:16Z</time></trkpt><trkpt lat="59.7589662485" lon="28.7716128677"><ele>33.30</ele><time>2015-12-04T12:33:30Z</time></trkpt><trkpt lat="59.7590041347" lon="28.7713981234"><ele>33.30</ele><time>2015-12-04T12:33:44Z</time></trkpt><trkpt lat="59.7589929868" lon="28.7712991331"><ele>33.30</ele><time>2015-12-04T12:33:58Z</time></trkpt><trkpt lat="59.7589341458" lon="28.7711815350"><ele>32.34</ele><time>2015-12-04T12:34:13Z</time></trkpt><trkpt lat="59.7589045577" lon="28.7710724864"><ele>33.30</ele><time>2015-12-04T12:34:32Z</time></trkpt><trkpt lat="59.7588728741" lon="28.7708427384"><ele>32.34</ele><time>2015-12-04T12:34:47Z</time></trkpt><trkpt lat="59.7588681802" lon="28.7706734240"><ele>32.34</ele><time>2015-12-04T12:35:00Z</time></trkpt><trkpt lat="59.7588199843" lon="28.7704819813"><ele>32.34</ele><time>2015-12-04T12:35:15Z</time></trkpt><trkpt lat="59.7587717045" lon="28.7704202067"><ele>32.82</ele><time>2015-12-04T12:35:45Z</time></trkpt><trkpt lat="59.7587598022" lon="28.7704328634"><ele>32.82</ele><time>2015-12-04T12:36:07Z</time></trkpt><trkpt lat="59.7587608919" lon="28.7703469489"><ele>33.30</ele><time>2015-12-04T12:36:44Z</time></trkpt><trkpt lat="59.7588183079" lon="28.7704230566"><ele>33.78</ele><time>2015-12-04T12:37:10Z</time></trkpt><trkpt lat="59.7587722912" lon="28.7703799736"><ele>33.30</ele><time>2015-12-04T12:37:43Z</time></trkpt><trkpt lat="59.7588060703" lon="28.7703995872"><ele>33.30</ele><time>2015-12-04T12:38:17Z</time></trkpt><trkpt lat="59.7588077467" lon="28.7703513075"><ele>33.30</ele><time>2015-12-04T12:38:45Z</time></trkpt><trkpt lat="59.7588302102" lon="28.7702468690"><ele>33.78</ele><time>2015-12-04T12:39:16Z</time></trkpt><trkpt lat="59.7587989457" lon="28.7702448573"><ele>34.26</ele><time>2015-12-04T12:39:43Z</time></trkpt><trkpt lat="59.7587544378" lon="28.7702379003"><ele>34.26</ele><time>2015-12-04T12:40:03Z</time></trkpt><trkpt lat="59.7587691899" lon="28.7699888740"><ele>33.78</ele><time>2015-12-04T12:40:18Z</time></trkpt><trkpt lat="59.7587748896" lon="28.7697500736"><ele>33.78</ele><time>2015-12-04T12:40:31Z</time></trkpt><trkpt lat="59.7587821819" lon="28.7695396040"><ele>33.30</ele><time>2015-12-04T12:40:45Z</time></trkpt><trkpt lat="59.7587712854" lon="28.7693709601"><ele>32.34</ele><time>2015-12-04T12:40:53Z</time></trkpt><trkpt lat="59.7587779071" lon="28.7691731472"><ele>31.86</ele><time>2015-12-04T12:41:06Z</time></trkpt><trkpt lat="59.7587841935" lon="28.7689534575"><ele>31.86</ele><time>2015-12-04T12:41:19Z</time></trkpt><trkpt lat="59.7588779870" lon="28.7686491944"><ele>31.38</ele><time>2015-12-04T12:41:33Z</time></trkpt><trkpt lat="59.7590307053" lon="28.7684864178"><ele>31.38</ele><time>2015-12-04T12:41:51Z</time></trkpt><trkpt lat="59.7591695935" lon="28.7685097195"><ele>31.86</ele><time>2015-12-04T12:42:05Z</time></trkpt><trkpt lat="59.7592556756" lon="28.7684921175"><ele>31.86</ele><time>2015-12-04T12:42:19Z</time></trkpt><trkpt lat="59.7593495529" lon="28.7684616074"><ele>31.38</ele><time>2015-12-04T12:42:35Z</time></trkpt><trkpt lat="59.7595459409" lon="28.7685000803"><ele>31.86</ele><time>2015-12-04T12:42:52Z</time></trkpt><trkpt lat="59.7595665604" lon="28.7685985677"><ele>32.34</ele><time>2015-12-04T12:43:12Z</time></trkpt><trkpt lat="59.7596357949" lon="28.7686367892"><ele>32.34</ele><time>2015-12-04T12:43:26Z</time></trkpt><trkpt lat="59.7597188596" lon="28.7685065344"><ele>31.86</ele><time>2015-12-04T12:43:39Z</time></trkpt><trkpt lat="59.7597260680" lon="28.7684724201"><ele>31.86</ele><time>2015-12-04T12:43:41Z</time></trkpt><trkpt lat="59.7598607652" lon="28.7683094759"><ele>31.86</ele><time>2015-12-04T12:43:56Z</time></trkpt><trkpt lat="59.7599866614" lon="28.7682523113"><ele>31.86</ele><time>2015-12-04T12:44:10Z</time></trkpt><trkpt lat="59.7600842267" lon="28.7680705916"><ele>31.38</ele><time>2015-12-04T12:44:25Z</time></trkpt><trkpt lat="59.7601017449" lon="28.7681147642"><ele>31.86</ele><time>2015-12-04T12:44:35Z</time></trkpt><trkpt lat="59.7601314168" lon="28.7680648919"><ele>31.38</ele><time>2015-12-04T12:44:48Z</time></trkpt><trkpt lat="59.7601261362" lon="28.7680576835"><ele>31.38</ele><time>2015-12-04T12:44:50Z</time></trkpt><trkpt lat="59.7601848934" lon="28.7680296041"><ele>30.90</ele><time>2015-12-04T12:45:00Z</time></trkpt><trkpt lat="59.7602401301" lon="28.7679565139"><ele>30.90</ele><time>2015-12-04T12:45:12Z</time></trkpt><trkpt lat="59.7602607496" lon="28.7679369003"><ele>31.38</ele><time>2015-12-04T12:45:15Z</time></trkpt><trkpt lat="59.7603614163" lon="28.7679093238"><ele>31.38</ele><time>2015-12-04T12:45:27Z</time></trkpt><trkpt lat="59.7604438104" lon="28.7678007782"><ele>30.90</ele><time>2015-12-04T12:45:42Z</time></trkpt><trkpt lat="59.7604883183" lon="28.7676267698"><ele>29.94</ele><time>2015-12-04T12:45:55Z</time></trkpt><trkpt lat="59.7605054174" lon="28.7675970979"><ele>28.50</ele><time>2015-12-04T12:46:02Z</time></trkpt><trkpt lat="59.7605087701" lon="28.7675437052"><ele>34.26</ele><time>2015-12-04T12:46:04Z</time></trkpt><trkpt lat="59.7605133802" lon="28.7675000355"><ele>30.42</ele><time>2015-12-04T12:46:05Z</time></trkpt><trkpt lat="59.7605121229" lon="28.7674573716"><ele>29.46</ele><time>2015-12-04T12:46:07Z</time></trkpt><trkpt lat="59.7605324909" lon="28.7673796713"><ele>29.94</ele><time>2015-12-04T12:46:21Z</time></trkpt><trkpt lat="59.7605769150" lon="28.7674958445"><ele>29.46</ele><time>2015-12-04T12:46:33Z</time></trkpt><trkpt lat="59.7606168967" lon="28.7673633266"><ele>29.46</ele><time>2015-12-04T12:46:49Z</time></trkpt><trkpt lat="59.7606838681" lon="28.7670713011"><ele>29.46</ele><time>2015-12-04T12:47:04Z</time></trkpt><trkpt lat="59.7607676871" lon="28.7666209415"><ele>30.42</ele><time>2015-12-04T12:47:25Z</time></trkpt><trkpt lat="59.7608829383" lon="28.7664401438"><ele>30.42</ele><time>2015-12-04T12:47:42Z</time></trkpt><trkpt lat="59.7609592974" lon="28.7661286723"><ele>29.94</ele><time>2015-12-04T12:47:57Z</time></trkpt><trkpt lat="59.7609613929" lon="28.7658008561"><ele>29.94</ele><time>2015-12-04T12:48:13Z</time></trkpt><trkpt lat="59.7609883826" lon="28.7657417636"><ele>28.98</ele><time>2015-12-04T12:48:27Z</time></trkpt><trkpt lat="59.7610848583" lon="28.7655922305"><ele>29.46</ele><time>2015-12-04T12:48:40Z</time></trkpt><trkpt lat="59.7611505724" lon="28.7653140351"><ele>29.46</ele><time>2015-12-04T12:48:56Z</time></trkpt><trkpt lat="59.7612259258" lon="28.7651884742"><ele>29.46</ele><time>2015-12-04T12:49:04Z</time></trkpt><trkpt lat="59.7613152768" lon="28.7649917509"><ele>28.98</ele><time>2015-12-04T12:49:17Z</time></trkpt><trkpt lat="59.7613489721" lon="28.7647972070"><ele>28.98</ele><time>2015-12-04T12:49:30Z</time></trkpt><trkpt lat="59.7613535821" lon="28.7644970510"><ele>28.50</ele><time>2015-12-04T12:49:45Z</time></trkpt><trkpt lat="59.7613565996" lon="28.7642416544"><ele>28.98</ele><time>2015-12-04T12:50:00Z</time></trkpt><trkpt lat="59.7612997703" lon="28.7639950588"><ele>28.02</ele><time>2015-12-04T12:50:10Z</time></trkpt><trkpt lat="59.7612449527" lon="28.7638295162"><ele>28.98</ele><time>2015-12-04T12:50:27Z</time></trkpt><trkpt lat="59.7612333857" lon="28.7637341302"><ele>28.50</ele><time>2015-12-04T12:50:35Z</time></trkpt><trkpt lat="59.7612382472" lon="28.7635340542"><ele>28.98</ele><time>2015-12-04T12:50:48Z</time></trkpt><trkpt lat="59.7612685058" lon="28.7634794042"><ele>28.02</ele><time>2015-12-04T12:51:07Z</time></trkpt><trkpt lat="59.7614221461" lon="28.7631737161"><ele>25.13</ele><time>2015-12-04T12:51:26Z</time></trkpt><trkpt lat="59.7614032030" lon="28.7630345766"><ele>24.17</ele><time>2015-12-04T12:51:36Z</time></trkpt><trkpt lat="59.7613562644" lon="28.7628780864"><ele>24.17</ele><time>2015-12-04T12:51:49Z</time></trkpt><trkpt lat="59.7613921389" lon="28.7626645993"><ele>23.69</ele><time>2015-12-04T12:52:00Z</time></trkpt><trkpt lat="59.7614852618" lon="28.7625418045"><ele>24.17</ele><time>2015-12-04T12:52:14Z</time></trkpt><trkpt lat="59.7615518142" lon="28.7623291556"><ele>23.69</ele><time>2015-12-04T12:52:29Z</time></trkpt><trkpt lat="59.7615739424" lon="28.7623440754"><ele>23.21</ele><time>2015-12-04T12:52:36Z</time></trkpt><trkpt lat="59.7615796421" lon="28.7620179355"><ele>22.73</ele><time>2015-12-04T12:52:51Z</time></trkpt><trkpt lat="59.7615922149" lon="28.7617342081"><ele>22.73</ele><time>2015-12-04T12:53:01Z</time></trkpt><trkpt lat="59.7616320290" lon="28.7614590302"><ele>22.25</ele><time>2015-12-04T12:53:15Z</time></trkpt><trkpt lat="59.7616684902" lon="28.7612732034"><ele>21.29</ele><time>2015-12-04T12:53:28Z</time></trkpt><trkpt lat="59.7617482021" lon="28.7609793339"><ele>21.29</ele><time>2015-12-04T12:53:43Z</time></trkpt><trkpt lat="59.7617487889" lon="28.7607540283"><ele>21.29</ele><time>2015-12-04T12:53:55Z</time></trkpt><trkpt lat="59.7617594339" lon="28.7607435510"><ele>21.77</ele><time>2015-12-04T12:53:56Z</time></trkpt><trkpt lat="59.7617950570" lon="28.7606526073"><ele>21.29</ele><time>2015-12-04T12:54:02Z</time></trkpt><trkpt lat="59.7618340328" lon="28.7604990508"><ele>20.81</ele><time>2015-12-04T12:54:12Z</time></trkpt><trkpt lat="59.7618356254" lon="28.7604784314"><ele>20.81</ele><time>2015-12-04T12:54:13Z</time></trkpt><trkpt lat="59.7618614417" lon="28.7602682132"><ele>20.81</ele><time>2015-12-04T12:54:25Z</time></trkpt><trkpt lat="59.7619007528" lon="28.7601398863"><ele>20.32</ele><time>2015-12-04T12:54:36Z</time></trkpt><trkpt lat="59.7619162593" lon="28.7599444203"><ele>21.29</ele><time>2015-12-04T12:54:48Z</time></trkpt><trkpt lat="59.7619165946" lon="28.7597268261"><ele>20.81</ele><time>2015-12-04T12:54:57Z</time></trkpt><trkpt lat="59.7619141638" lon="28.7596945558"><ele>21.29</ele><time>2015-12-04T12:54:59Z</time></trkpt><trkpt lat="59.7619006690" lon="28.7596021872"><ele>21.29</ele><time>2015-12-04T12:55:04Z</time></trkpt><trkpt lat="59.7619159240" lon="28.7593827490"><ele>21.77</ele><time>2015-12-04T12:55:16Z</time></trkpt><trkpt lat="59.7619119845" lon="28.7593248300"><ele>21.29</ele><time>2015-12-04T12:55:19Z</time></trkpt><trkpt lat="59.7619401477" lon="28.7592216488"><ele>21.29</ele><time>2015-12-04T12:55:24Z</time></trkpt><trkpt lat="59.7619655449" lon="28.7590370793"><ele>21.77</ele><time>2015-12-04T12:55:33Z</time></trkpt><trkpt lat="59.7619841527" lon="28.7588577904"><ele>21.77</ele><time>2015-12-04T12:55:44Z</time></trkpt><trkpt lat="59.7620115615" lon="28.7586756516"><ele>21.77</ele><time>2015-12-04T12:55:56Z</time></trkpt><trkpt lat="59.7620532196" lon="28.7586199958"><ele>21.29</ele><time>2015-12-04T12:56:12Z</time></trkpt><trkpt lat="59.7620952129" lon="28.7586729694"><ele>21.29</ele><time>2015-12-04T12:56:33Z</time></trkpt><trkpt lat="59.7620980628" lon="28.7586728856"><ele>21.29</ele><time>2015-12-04T12:56:34Z</time></trkpt><trkpt lat="59.7621291596" lon="28.7586756516"><ele>21.77</ele><time>2015-12-04T12:56:37Z</time></trkpt><trkpt lat="59.7621786967" lon="28.7586802617"><ele>21.77</ele><time>2015-12-04T12:56:41Z</time></trkpt><trkpt lat="59.7622534633" lon="28.7587878015"><ele>21.29</ele><time>2015-12-04T12:56:49Z</time></trkpt><trkpt lat="59.7623306606" lon="28.7587501667"><ele>21.77</ele><time>2015-12-04T12:56:57Z</time></trkpt><trkpt lat="59.7623821255" lon="28.7587084249"><ele>21.77</ele><time>2015-12-04T12:57:04Z</time></trkpt><trkpt lat="59.7624826245" lon="28.7586355023"><ele>21.29</ele><time>2015-12-04T12:57:15Z</time></trkpt><trkpt lat="59.7625099495" lon="28.7586102728"><ele>21.29</ele><time>2015-12-04T12:57:19Z</time></trkpt><trkpt lat="59.7625654377" lon="28.7586800102"><ele>21.29</ele><time>2015-12-04T12:57:31Z</time></trkpt><trkpt lat="59.7626219317" lon="28.7586175650"><ele>21.29</ele><time>2015-12-04T12:57:41Z</time></trkpt><trkpt lat="59.7626940999" lon="28.7586138770"><ele>20.32</ele><time>2015-12-04T12:57:54Z</time></trkpt><trkpt lat="59.7627961077" lon="28.7585211731"><ele>21.29</ele><time>2015-12-04T12:58:06Z</time></trkpt><trkpt lat="59.7628563736" lon="28.7585338298"><ele>20.81</ele><time>2015-12-04T12:58:18Z</time></trkpt><trkpt lat="59.7629395220" lon="28.7585466541"><ele>20.32</ele><time>2015-12-04T12:58:31Z</time></trkpt><trkpt lat="59.7630201560" lon="28.7584754918"><ele>20.81</ele><time>2015-12-04T12:58:38Z</time></trkpt><trkpt lat="59.7630856186" lon="28.7584613264"><ele>20.81</ele><time>2015-12-04T12:58:48Z</time></trkpt><trkpt lat="59.7631676774" lon="28.7583968695"><ele>21.29</ele><time>2015-12-04T12:59:02Z</time></trkpt><trkpt lat="59.7633245867" lon="28.7582176644"><ele>20.81</ele><time>2015-12-04T12:59:19Z</time></trkpt><trkpt lat="59.7633906361" lon="28.7580888346"><ele>20.81</ele><time>2015-12-04T12:59:33Z</time></trkpt><trkpt lat="59.7634405922" lon="28.7579762656"><ele>21.29</ele><time>2015-12-04T12:59:46Z</time></trkpt><trkpt lat="59.7635229863" lon="28.7580291554"><ele>20.81</ele><time>2015-12-04T13:00:00Z</time></trkpt><trkpt lat="59.7636242397" lon="28.7579775229"><ele>22.25</ele><time>2015-12-04T13:00:14Z</time></trkpt><trkpt lat="59.7636362258" lon="28.7579690572"><ele>20.81</ele><time>2015-12-04T13:00:17Z</time></trkpt><trkpt lat="59.7637226433" lon="28.7578862440"><ele>20.81</ele><time>2015-12-04T13:00:29Z</time></trkpt><trkpt lat="59.7638724279" lon="28.7579396367"><ele>21.77</ele><time>2015-12-04T13:00:49Z</time></trkpt><trkpt lat="59.7639582586" lon="28.7579160836"><ele>21.77</ele><time>2015-12-04T13:01:01Z</time></trkpt><trkpt lat="59.7640089691" lon="28.7579874974"><ele>21.77</ele><time>2015-12-04T13:01:14Z</time></trkpt><trkpt lat="59.7640973981" lon="28.7580189295"><ele>22.25</ele><time>2015-12-04T13:01:28Z</time></trkpt><trkpt lat="59.7641664650" lon="28.7580110505"><ele>22.73</ele><time>2015-12-04T13:01:42Z</time></trkpt><trkpt lat="59.7642481048" lon="28.7580273114"><ele>22.73</ele><time>2015-12-04T13:01:57Z</time></trkpt><trkpt lat="59.7643787786" lon="28.7580358610"><ele>22.25</ele><time>2015-12-04T13:02:11Z</time></trkpt><trkpt lat="59.7644689679" lon="28.7580532953"><ele>23.21</ele><time>2015-12-04T13:02:26Z</time></trkpt><trkpt lat="59.7645438183" lon="28.7580893375"><ele>23.21</ele><time>2015-12-04T13:02:41Z</time></trkpt><trkpt lat="59.7646297328" lon="28.7582289800"><ele>23.21</ele><time>2015-12-04T13:02:53Z</time></trkpt><trkpt lat="59.7647318244" lon="28.7582842167"><ele>22.25</ele><time>2015-12-04T13:03:05Z</time></trkpt><trkpt lat="59.7648243606" lon="28.7583610788"><ele>22.73</ele><time>2015-12-04T13:03:17Z</time></trkpt><trkpt lat="59.7648970317" lon="28.7584770005"><ele>22.73</ele><time>2015-12-04T13:03:29Z</time></trkpt><trkpt lat="59.7649888974" lon="28.7585236877"><ele>22.25</ele><time>2015-12-04T13:03:41Z</time></trkpt><trkpt lat="59.7651344072" lon="28.7585743144"><ele>22.25</ele><time>2015-12-04T13:03:57Z</time></trkpt><trkpt lat="59.7652807552" lon="28.7586185709"><ele>22.73</ele><time>2015-12-04T13:04:10Z</time></trkpt><trkpt lat="59.7654038854" lon="28.7586503383"><ele>21.29</ele><time>2015-12-04T13:04:26Z</time></trkpt><trkpt lat="59.7654638998" lon="28.7586823571"><ele>22.25</ele><time>2015-12-04T13:04:36Z</time></trkpt><trkpt lat="59.7654639836" lon="28.7586574629"><ele>24.65</ele><time>2015-12-04T13:04:38Z</time></trkpt><trkpt lat="59.7654675040" lon="28.7586549483"><ele>23.69</ele><time>2015-12-04T13:04:39Z</time></trkpt><trkpt lat="59.7654792387" lon="28.7586579658"><ele>22.25</ele><time>2015-12-04T13:04:41Z</time></trkpt><trkpt lat="59.7655213159" lon="28.7586923316"><ele>21.77</ele><time>2015-12-04T13:04:46Z</time></trkpt><trkpt lat="59.7656384949" lon="28.7587605603"><ele>22.73</ele><time>2015-12-04T13:05:00Z</time></trkpt><trkpt lat="59.7657674085" lon="28.7586328201"><ele>23.21</ele><time>2015-12-04T13:05:08Z</time></trkpt><trkpt lat="59.7658902872" lon="28.7586273719"><ele>21.77</ele><time>2015-12-04T13:05:22Z</time></trkpt><trkpt lat="59.7660227213" lon="28.7586313952"><ele>22.73</ele><time>2015-12-04T13:05:34Z</time></trkpt><trkpt lat="59.7660821490" lon="28.7586113624"><ele>23.21</ele><time>2015-12-04T13:05:44Z</time></trkpt><trkpt lat="59.7661534790" lon="28.7588992808"><ele>24.65</ele><time>2015-12-04T13:05:56Z</time></trkpt><trkpt lat="59.7661608551" lon="28.7589219119"><ele>24.65</ele><time>2015-12-04T13:05:57Z</time></trkpt><trkpt lat="59.7661771160" lon="28.7589692697"><ele>23.21</ele><time>2015-12-04T13:05:59Z</time></trkpt><trkpt lat="59.7661944665" lon="28.7590351515"><ele>21.77</ele><time>2015-12-04T13:06:03Z</time></trkpt><trkpt lat="59.7661993280" lon="28.7590608839"><ele>24.17</ele><time>2015-12-04T13:06:05Z</time></trkpt><trkpt lat="59.7662557382" lon="28.7592564337"><ele>24.65</ele><time>2015-12-04T13:06:19Z</time></trkpt><trkpt lat="59.7662646230" lon="28.7592680007"><ele>24.17</ele><time>2015-12-04T13:06:20Z</time></trkpt><trkpt lat="59.7663206141" lon="28.7593498081"><ele>24.17</ele><time>2015-12-04T13:06:24Z</time></trkpt><trkpt lat="59.7664182633" lon="28.7596305180"><ele>24.17</ele><time>2015-12-04T13:06:37Z</time></trkpt><trkpt lat="59.7665175050" lon="28.7599175982"><ele>24.17</ele><time>2015-12-04T13:06:49Z</time></trkpt><trkpt lat="59.7665181756" lon="28.7599921133"><ele>24.65</ele><time>2015-12-04T13:06:53Z</time></trkpt><trkpt lat="59.7665298264" lon="28.7600496970"><ele>24.65</ele><time>2015-12-04T13:06:55Z</time></trkpt><trkpt lat="59.7665683832" lon="28.7601646967"><ele>24.65</ele><time>2015-12-04T13:06:59Z</time></trkpt><trkpt lat="59.7666184232" lon="28.7603414711"><ele>24.65</ele><time>2015-12-04T13:07:08Z</time></trkpt><trkpt lat="59.7666661162" lon="28.7605956942"><ele>24.17</ele><time>2015-12-04T13:07:19Z</time></trkpt><trkpt lat="59.7666971292" lon="28.7609240972"><ele>25.61</ele><time>2015-12-04T13:07:33Z</time></trkpt><trkpt lat="59.7667601611" lon="28.7611334771"><ele>25.13</ele><time>2015-12-04T13:07:43Z</time></trkpt><trkpt lat="59.7668567207" lon="28.7614615448"><ele>24.17</ele><time>2015-12-04T13:07:58Z</time></trkpt><trkpt lat="59.7669197526" lon="28.7617892772"><ele>24.17</ele><time>2015-12-04T13:08:13Z</time></trkpt><trkpt lat="59.7669630870" lon="28.7619585078"><ele>24.17</ele><time>2015-12-04T13:08:21Z</time></trkpt><trkpt lat="59.7670256160" lon="28.7623475958"><ele>24.65</ele><time>2015-12-04T13:08:36Z</time></trkpt><trkpt lat="59.7670664359" lon="28.7625532039"><ele>24.65</ele><time>2015-12-04T13:08:47Z</time></trkpt><trkpt lat="59.7671307251" lon="28.7626609951"><ele>24.17</ele><time>2015-12-04T13:08:59Z</time></trkpt><trkpt lat="59.7671426274" lon="28.7628078461"><ele>24.17</ele><time>2015-12-04T13:09:05Z</time></trkpt><trkpt lat="59.7671339940" lon="28.7629396934"><ele>24.65</ele><time>2015-12-04T13:09:09Z</time></trkpt><trkpt lat="59.7671389394" lon="28.7630796712"><ele>24.17</ele><time>2015-12-04T13:09:17Z</time></trkpt><trkpt lat="59.7671583015" lon="28.7634256762"><ele>24.17</ele><time>2015-12-04T13:09:29Z</time></trkpt><trkpt lat="59.7671598941" lon="28.7634885404"><ele>23.69</ele><time>2015-12-04T13:09:32Z</time></trkpt><trkpt lat="59.7672663443" lon="28.7638293486"><ele>24.17</ele><time>2015-12-04T13:09:47Z</time></trkpt><trkpt lat="59.7672810126" lon="28.7640018482"><ele>24.17</ele><time>2015-12-04T13:09:56Z</time></trkpt><trkpt lat="59.7673209105" lon="28.7643678021"><ele>23.21</ele><time>2015-12-04T13:10:10Z</time></trkpt><trkpt lat="59.7673629038" lon="28.7646009028"><ele>23.21</ele><time>2015-12-04T13:10:19Z</time></trkpt><trkpt lat="59.7673907317" lon="28.7649236899"><ele>24.65</ele><time>2015-12-04T13:10:31Z</time></trkpt><trkpt lat="59.7674453817" lon="28.7651934195"><ele>23.69</ele><time>2015-12-04T13:10:43Z</time></trkpt><trkpt lat="59.7675171308" lon="28.7654420268"><ele>23.21</ele><time>2015-12-04T13:10:55Z</time></trkpt><trkpt lat="59.7676260117" lon="28.7656875327"><ele>22.73</ele><time>2015-12-04T13:11:08Z</time></trkpt><trkpt lat="59.7676916420" lon="28.7659392413"><ele>23.69</ele><time>2015-12-04T13:11:20Z</time></trkpt><trkpt lat="59.7677517403" lon="28.7661874294"><ele>23.21</ele><time>2015-12-04T13:11:32Z</time></trkpt><trkpt lat="59.7677882016" lon="28.7664757669"><ele>23.21</ele><time>2015-12-04T13:11:45Z</time></trkpt><trkpt lat="59.7678172868" lon="28.7667432334"><ele>23.21</ele><time>2015-12-04T13:11:56Z</time></trkpt><trkpt lat="59.7678152751" lon="28.7667824607"><ele>23.21</ele><time>2015-12-04T13:11:58Z</time></trkpt><trkpt lat="59.7678810731" lon="28.7669516914"><ele>24.17</ele><time>2015-12-04T13:12:06Z</time></trkpt><trkpt lat="59.7679124214" lon="28.7670662720"><ele>25.13</ele><time>2015-12-04T13:12:09Z</time></trkpt><trkpt lat="59.7679188754" lon="28.7671908271"><ele>23.69</ele><time>2015-12-04T13:12:16Z</time></trkpt><trkpt lat="59.7679148521" lon="28.7672120333"><ele>23.69</ele><time>2015-12-04T13:12:17Z</time></trkpt><trkpt lat="59.7679835837" lon="28.7675941642"><ele>24.17</ele><time>2015-12-04T13:12:31Z</time></trkpt><trkpt lat="59.7680295166" lon="28.7678852677"><ele>23.21</ele><time>2015-12-04T13:12:47Z</time></trkpt><trkpt lat="59.7680433467" lon="28.7681769580"><ele>24.17</ele><time>2015-12-04T13:12:59Z</time></trkpt><trkpt lat="59.7681326978" lon="28.7684941292"><ele>22.73</ele><time>2015-12-04T13:13:12Z</time></trkpt><trkpt lat="59.7681936342" lon="28.7686571572"><ele>22.25</ele><time>2015-12-04T13:13:20Z</time></trkpt><trkpt lat="59.7682844941" lon="28.7688610051"><ele>21.77</ele><time>2015-12-04T13:13:31Z</time></trkpt><trkpt lat="59.7683790419" lon="28.7689861469"><ele>22.73</ele><time>2015-12-04T13:13:43Z</time></trkpt><trkpt lat="59.7683995776" lon="28.7690040004"><ele>22.25</ele><time>2015-12-04T13:13:45Z</time></trkpt><trkpt lat="59.7684964724" lon="28.7692573853"><ele>22.73</ele><time>2015-12-04T13:13:57Z</time></trkpt><trkpt lat="59.7685191873" lon="28.7694386858"><ele>21.77</ele><time>2015-12-04T13:14:04Z</time></trkpt><trkpt lat="59.7685340233" lon="28.7696187291"><ele>22.25</ele><time>2015-12-04T13:14:12Z</time></trkpt><trkpt lat="59.7685268149" lon="28.7698337249"><ele>21.77</ele><time>2015-12-04T13:14:20Z</time></trkpt><trkpt lat="59.7685413156" lon="28.7700181268"><ele>22.25</ele><time>2015-12-04T13:14:29Z</time></trkpt><trkpt lat="59.7685527150" lon="28.7702099886"><ele>22.25</ele><time>2015-12-04T13:14:39Z</time></trkpt><trkpt lat="59.7685888410" lon="28.7704361323"><ele>22.73</ele><time>2015-12-04T13:14:50Z</time></trkpt><trkpt lat="59.7686020844" lon="28.7707487773"><ele>23.21</ele><time>2015-12-04T13:15:03Z</time></trkpt><trkpt lat="59.7686123941" lon="28.7708667107"><ele>22.25</ele><time>2015-12-04T13:15:08Z</time></trkpt><trkpt lat="59.7687018290" lon="28.7711032480"><ele>21.77</ele><time>2015-12-04T13:15:19Z</time></trkpt><trkpt lat="59.7687633522" lon="28.7712050043"><ele>21.29</ele><time>2015-12-04T13:15:26Z</time></trkpt><trkpt lat="59.7689532861" lon="28.7712987978"><ele>22.25</ele><time>2015-12-04T13:15:42Z</time></trkpt><trkpt lat="59.7690640949" lon="28.7713826168"><ele>22.25</ele><time>2015-12-04T13:15:52Z</time></trkpt><trkpt lat="59.7691686172" lon="28.7715085968"><ele>21.77</ele><time>2015-12-04T13:16:03Z</time></trkpt><trkpt lat="59.7693787515" lon="28.7713620812"><ele>20.32</ele><time>2015-12-04T13:16:20Z</time></trkpt><trkpt lat="59.7693738900" lon="28.7713696249"><ele>20.81</ele><time>2015-12-04T13:16:22Z</time></trkpt><trkpt lat="59.7693919111" lon="28.7714104448"><ele>21.29</ele><time>2015-12-04T13:16:24Z</time></trkpt><trkpt lat="59.7694147937" lon="28.7714403681"><ele>21.29</ele><time>2015-12-04T13:16:25Z</time></trkpt><trkpt lat="59.7694349941" lon="28.7714721356"><ele>21.29</ele><time>2015-12-04T13:16:26Z</time></trkpt><trkpt lat="59.7694489080" lon="28.7714968622"><ele>20.81</ele><time>2015-12-04T13:16:27Z</time></trkpt><trkpt lat="59.7694769036" lon="28.7716354150"><ele>21.29</ele><time>2015-12-04T13:16:35Z</time></trkpt><trkpt lat="59.7694772389" lon="28.7716712058"><ele>20.81</ele><time>2015-12-04T13:16:36Z</time></trkpt><trkpt lat="59.7694781609" lon="28.7717126962"><ele>20.81</ele><time>2015-12-04T13:16:37Z</time></trkpt><trkpt lat="59.7694774903" lon="28.7717518397"><ele>20.81</ele><time>2015-12-04T13:16:38Z</time></trkpt><trkpt lat="59.7694777418" lon="28.7717912346"><ele>20.81</ele><time>2015-12-04T13:16:39Z</time></trkpt><trkpt lat="59.7694800049" lon="28.7718319707"><ele>21.29</ele><time>2015-12-04T13:16:40Z</time></trkpt><trkpt lat="59.7694857884" lon="28.7718753889"><ele>21.29</ele><time>2015-12-04T13:16:41Z</time></trkpt><trkpt lat="59.7694906499" lon="28.7719117664"><ele>21.29</ele><time>2015-12-04T13:16:42Z</time></trkpt><trkpt lat="59.7694956791" lon="28.7719420251"><ele>21.29</ele><time>2015-12-04T13:16:43Z</time></trkpt><trkpt lat="59.7695193999" lon="28.7720533367"><ele>21.29</ele><time>2015-12-04T13:16:51Z</time></trkpt><trkpt lat="59.7695255186" lon="28.7720856071"><ele>21.29</ele><time>2015-12-04T13:16:52Z</time></trkpt><trkpt lat="59.7695294581" lon="28.7721239962"><ele>21.29</ele><time>2015-12-04T13:16:53Z</time></trkpt><trkpt lat="59.7695452161" lon="28.7723522354"><ele>21.29</ele><time>2015-12-04T13:16:59Z</time></trkpt><trkpt lat="59.7695546038" lon="28.7723685801"><ele>20.81</ele><time>2015-12-04T13:17:00Z</time></trkpt><trkpt lat="59.7695707809" lon="28.7724877708"><ele>20.32</ele><time>2015-12-04T13:17:08Z</time></trkpt><trkpt lat="59.7695706971" lon="28.7725280039"><ele>20.32</ele><time>2015-12-04T13:17:09Z</time></trkpt><trkpt lat="59.7695712838" lon="28.7725727633"><ele>20.32</ele><time>2015-12-04T13:17:10Z</time></trkpt><trkpt lat="59.7695718706" lon="28.7726199534"><ele>20.32</ele><time>2015-12-04T13:17:11Z</time></trkpt><trkpt lat="59.7695722897" lon="28.7726645451"><ele>20.32</ele><time>2015-12-04T13:17:12Z</time></trkpt><trkpt lat="59.7695907298" lon="28.7727834005"><ele>20.32</ele><time>2015-12-04T13:17:16Z</time></trkpt><trkpt lat="59.7695923224" lon="28.7728656270"><ele>20.32</ele><time>2015-12-04T13:17:24Z</time></trkpt><trkpt lat="59.7695899755" lon="28.7729010824"><ele>20.32</ele><time>2015-12-04T13:17:25Z</time></trkpt><trkpt lat="59.7695877124" lon="28.7729466800"><ele>20.32</ele><time>2015-12-04T13:17:26Z</time></trkpt><trkpt lat="59.7696191445" lon="28.7731890008"><ele>19.84</ele><time>2015-12-04T13:17:37Z</time></trkpt><trkpt lat="59.7696218267" lon="28.7732194271"><ele>19.84</ele><time>2015-12-04T13:17:38Z</time></trkpt><trkpt lat="59.7696195636" lon="28.7732615881"><ele>19.84</ele><time>2015-12-04T13:17:39Z</time></trkpt><trkpt lat="59.7696174681" lon="28.7733080238"><ele>19.84</ele><time>2015-12-04T13:17:40Z</time></trkpt><trkpt lat="59.7696175519" lon="28.7733568903"><ele>19.84</ele><time>2015-12-04T13:17:41Z</time></trkpt><trkpt lat="59.7696173005" lon="28.7734094448"><ele>19.84</ele><time>2015-12-04T13:17:42Z</time></trkpt><trkpt lat="59.7696357407" lon="28.7735935114"><ele>19.84</ele><time>2015-12-04T13:17:52Z</time></trkpt><trkpt lat="59.7696552705" lon="28.7738972716"><ele>19.36</ele><time>2015-12-04T13:18:03Z</time></trkpt><trkpt lat="59.7696735431" lon="28.7742599566"><ele>19.36</ele><time>2015-12-04T13:18:17Z</time></trkpt><trkpt lat="59.7696854454" lon="28.7745328713"><ele>19.36</ele><time>2015-12-04T13:18:29Z</time></trkpt><trkpt lat="59.7696980182" lon="28.7749782857"><ele>19.36</ele><time>2015-12-04T13:18:43Z</time></trkpt><trkpt lat="59.7697197273" lon="28.7753373664"><ele>18.88</ele><time>2015-12-04T13:18:57Z</time></trkpt><trkpt lat="59.7697447892" lon="28.7755399570"><ele>18.88</ele><time>2015-12-04T13:19:09Z</time></trkpt><trkpt lat="59.7697761375" lon="28.7759531848"><ele>18.88</ele><time>2015-12-04T13:19:24Z</time></trkpt><trkpt lat="59.7697749641" lon="28.7764788140"><ele>18.88</ele><time>2015-12-04T13:19:39Z</time></trkpt><trkpt lat="59.7698191367" lon="28.7768793013"><ele>18.88</ele><time>2015-12-04T13:19:56Z</time></trkpt><trkpt lat="59.7698414326" lon="28.7770248111"><ele>18.88</ele><time>2015-12-04T13:20:03Z</time></trkpt><trkpt lat="59.7698416002" lon="28.7770556565"><ele>18.88</ele><time>2015-12-04T13:20:04Z</time></trkpt><trkpt lat="59.7698110901" lon="28.7775354367"><ele>19.36</ele><time>2015-12-04T13:20:18Z</time></trkpt><trkpt lat="59.7698198073" lon="28.7779988721"><ele>19.36</ele><time>2015-12-04T13:20:34Z</time></trkpt><trkpt lat="59.7698801570" lon="28.7781813461"><ele>19.36</ele><time>2015-12-04T13:20:49Z</time></trkpt><trkpt lat="59.7698769718" lon="28.7782075815"><ele>19.36</ele><time>2015-12-04T13:20:50Z</time></trkpt><trkpt lat="59.7698429413" lon="28.7786259223"><ele>19.36</ele><time>2015-12-04T13:21:05Z</time></trkpt><trkpt lat="59.7698531672" lon="28.7786928937"><ele>19.36</ele><time>2015-12-04T13:21:08Z</time></trkpt><trkpt lat="59.7698734514" lon="28.7793198600"><ele>18.88</ele><time>2015-12-04T13:21:21Z</time></trkpt><trkpt lat="59.7698487248" lon="28.7797656935"><ele>18.88</ele><time>2015-12-04T13:21:34Z</time></trkpt><trkpt lat="59.7698522452" lon="28.7799496762"><ele>19.36</ele><time>2015-12-04T13:21:49Z</time></trkpt><trkpt lat="59.7698592860" lon="28.7803720403"><ele>19.36</ele><time>2015-12-04T13:22:01Z</time></trkpt><trkpt lat="59.7698322125" lon="28.7807428557"><ele>20.81</ele><time>2015-12-04T13:22:13Z</time></trkpt><trkpt lat="59.7698133532" lon="28.7809814047"><ele>19.84</ele><time>2015-12-04T13:22:28Z</time></trkpt><trkpt lat="59.7698080726" lon="28.7813271582"><ele>18.88</ele><time>2015-12-04T13:22:43Z</time></trkpt><trkpt lat="59.7698124312" lon="28.7819620874"><ele>19.36</ele><time>2015-12-04T13:23:04Z</time></trkpt><trkpt lat="59.7698230762" lon="28.7822621595"><ele>19.84</ele><time>2015-12-04T13:23:20Z</time></trkpt><trkpt lat="59.7698400076" lon="28.7825707812"><ele>19.84</ele><time>2015-12-04T13:23:35Z</time></trkpt><trkpt lat="59.7698365711" lon="28.7826080807"><ele>19.36</ele><time>2015-12-04T13:23:37Z</time></trkpt><trkpt lat="59.7697946616" lon="28.7829067279"><ele>19.36</ele><time>2015-12-04T13:23:45Z</time></trkpt><trkpt lat="59.7697887942" lon="28.7829497270"><ele>19.36</ele><time>2015-12-04T13:23:46Z</time></trkpt><trkpt lat="59.7697581165" lon="28.7832444347"><ele>19.84</ele><time>2015-12-04T13:23:52Z</time></trkpt><trkpt lat="59.7697538417" lon="28.7832876015"><ele>19.84</ele><time>2015-12-04T13:23:53Z</time></trkpt><trkpt lat="59.7697504051" lon="28.7833296787"><ele>20.32</ele><time>2015-12-04T13:23:54Z</time></trkpt><trkpt lat="59.7697457951" lon="28.7833840773"><ele>19.84</ele><time>2015-12-04T13:23:55Z</time></trkpt><trkpt lat="59.7697432805" lon="28.7834312674"><ele>19.36</ele><time>2015-12-04T13:23:56Z</time></trkpt><trkpt lat="59.7697381675" lon="28.7834745180"><ele>19.36</ele><time>2015-12-04T13:23:57Z</time></trkpt><trkpt lat="59.7697321326" lon="28.7835211214"><ele>19.36</ele><time>2015-12-04T13:23:58Z</time></trkpt><trkpt lat="59.7696985211" lon="28.7840201799"><ele>19.84</ele><time>2015-12-04T13:24:11Z</time></trkpt><trkpt lat="59.7696959227" lon="28.7843597308"><ele>18.88</ele><time>2015-12-04T13:24:25Z</time></trkpt><trkpt lat="59.7696939949" lon="28.7845252734"><ele>19.36</ele><time>2015-12-04T13:24:35Z</time></trkpt><trkpt lat="59.7697014548" lon="28.7847463042"><ele>19.36</ele><time>2015-12-04T13:24:48Z</time></trkpt><trkpt lat="59.7696388420" lon="28.7851710990"><ele>19.36</ele><time>2015-12-04T13:24:58Z</time></trkpt><trkpt lat="59.7696196474" lon="28.7856460176"><ele>19.36</ele><time>2015-12-04T13:25:12Z</time></trkpt><trkpt lat="59.7696875408" lon="28.7857140787"><ele>19.84</ele><time>2015-12-04T13:25:25Z</time></trkpt><trkpt lat="59.7696268559" lon="28.7861439865"><ele>19.36</ele><time>2015-12-04T13:25:41Z</time></trkpt><trkpt lat="59.7695841920" lon="28.7867028080"><ele>18.88</ele><time>2015-12-04T13:25:56Z</time></trkpt><trkpt lat="59.7695043962" lon="28.7873060536"><ele>18.88</ele><time>2015-12-04T13:26:11Z</time></trkpt><trkpt lat="59.7694582120" lon="28.7876307685"><ele>17.92</ele><time>2015-12-04T13:26:22Z</time></trkpt><trkpt lat="59.7694069147" lon="28.7881231215"><ele>17.92</ele><time>2015-12-04T13:26:36Z</time></trkpt><trkpt lat="59.7693715431" lon="28.7884716410"><ele>17.92</ele><time>2015-12-04T13:26:48Z</time></trkpt><trkpt lat="59.7693519294" lon="28.7886557914"><ele>17.92</ele><time>2015-12-04T13:26:53Z</time></trkpt><trkpt lat="59.7694098484" lon="28.7886874750"><ele>18.40</ele><time>2015-12-04T13:27:03Z</time></trkpt><trkpt lat="59.7694256064" lon="28.7888690270"><ele>18.40</ele><time>2015-12-04T13:27:15Z</time></trkpt><trkpt lat="59.7693961859" lon="28.7890869565"><ele>18.40</ele><time>2015-12-04T13:27:28Z</time></trkpt><trkpt lat="59.7693719622" lon="28.7893249188"><ele>18.40</ele><time>2015-12-04T13:27:43Z</time></trkpt><trkpt lat="59.7693551145" lon="28.7893917225"><ele>17.92</ele><time>2015-12-04T13:27:47Z</time></trkpt><trkpt lat="59.7693448048" lon="28.7894304469"><ele>17.92</ele><time>2015-12-04T13:27:48Z</time></trkpt><trkpt lat="59.7693014704" lon="28.7897267472"><ele>17.92</ele><time>2015-12-04T13:27:54Z</time></trkpt><trkpt lat="59.7692671884" lon="28.7901041843"><ele>17.92</ele><time>2015-12-04T13:28:06Z</time></trkpt><trkpt lat="59.7692307271" lon="28.7905047555"><ele>17.92</ele><time>2015-12-04T13:28:16Z</time></trkpt><trkpt lat="59.7691198345" lon="28.7910738029"><ele>18.40</ele><time>2015-12-04T13:28:29Z</time></trkpt><trkpt lat="59.7690384462" lon="28.7916004378"><ele>17.44</ele><time>2015-12-04T13:28:42Z</time></trkpt><trkpt lat="59.7690800205" lon="28.7917379010"><ele>17.92</ele><time>2015-12-04T13:28:55Z</time></trkpt><trkpt lat="59.7691217624" lon="28.7918235641"><ele>17.92</ele><time>2015-12-04T13:29:08Z</time></trkpt><trkpt lat="59.7691155598" lon="28.7918490451"><ele>17.92</ele><time>2015-12-04T13:29:09Z</time></trkpt><trkpt lat="59.7689832095" lon="28.7923378777"><ele>18.88</ele><time>2015-12-04T13:29:21Z</time></trkpt><trkpt lat="59.7688941937" lon="28.7928573042"><ele>18.88</ele><time>2015-12-04T13:29:34Z</time></trkpt><trkpt lat="59.7689207643" lon="28.7930373475"><ele>18.40</ele><time>2015-12-04T13:29:46Z</time></trkpt><trkpt lat="59.7689297330" lon="28.7931121979"><ele>19.36</ele><time>2015-12-04T13:29:52Z</time></trkpt><trkpt lat="59.7689190041" lon="28.7932250183"><ele>18.88</ele><time>2015-12-04T13:29:58Z</time></trkpt><trkpt lat="59.7689128015" lon="28.7932646647"><ele>18.40</ele><time>2015-12-04T13:29:59Z</time></trkpt><trkpt lat="59.7687459178" lon="28.7938395794"><ele>18.88</ele><time>2015-12-04T13:30:14Z</time></trkpt><trkpt lat="59.7686619312" lon="28.7944709044"><ele>19.36</ele><time>2015-12-04T13:30:30Z</time></trkpt><trkpt lat="59.7686988115" lon="28.7946278136"><ele>17.92</ele><time>2015-12-04T13:30:42Z</time></trkpt><trkpt lat="59.7687451635" lon="28.7948219385"><ele>18.40</ele><time>2015-12-04T13:30:58Z</time></trkpt><trkpt lat="59.7685710713" lon="28.7955134455"><ele>18.40</ele><time>2015-12-04T13:31:13Z</time></trkpt><trkpt lat="59.7685949598" lon="28.7955738790"><ele>18.88</ele><time>2015-12-04T13:31:21Z</time></trkpt><trkpt lat="59.7686274815" lon="28.7957291119"><ele>19.36</ele><time>2015-12-04T13:31:31Z</time></trkpt><trkpt lat="59.7686304990" lon="28.7958467938"><ele>19.36</ele><time>2015-12-04T13:31:36Z</time></trkpt><trkpt lat="59.7686247993" lon="28.7958767172"><ele>19.36</ele><time>2015-12-04T13:31:37Z</time></trkpt><trkpt lat="59.7684872523" lon="28.7964376342"><ele>19.36</ele><time>2015-12-04T13:31:50Z</time></trkpt><trkpt lat="59.7684969753" lon="28.7965996563"><ele>19.36</ele><time>2015-12-04T13:32:01Z</time></trkpt><trkpt lat="59.7684377991" lon="28.7969120499"><ele>19.84</ele><time>2015-12-04T13:32:12Z</time></trkpt><trkpt lat="59.7683686484" lon="28.7972368486"><ele>19.36</ele><time>2015-12-04T13:32:27Z</time></trkpt><trkpt lat="59.7683067899" lon="28.7976411916"><ele>19.36</ele><time>2015-12-04T13:32:44Z</time></trkpt><trkpt lat="59.7682822309" lon="28.7980279326"><ele>19.36</ele><time>2015-12-04T13:33:01Z</time></trkpt><trkpt lat="59.7682792135" lon="28.7982207164"><ele>19.36</ele><time>2015-12-04T13:33:10Z</time></trkpt></trkseg></trk></gpx>